Observation data for Panhandle on 01/18/2019      Previous  Date  Next       Current Mesonet Observations  Soil Data  Daily Summary Page  Observations in Plain Language
KPA1 180600Z 17010KT 03/M02 A2997 RMK A01 T00331016  RH  070%=      5-min Rain = 0
KPA1 180601Z 17010KT 03/M02 A2997 RMK A01 T00321016  RH  070%=      5-min Rain = 0
KPA1 180602Z 17010KT 03/M02 A2997 RMK A01 T00321016  RH  071%=      5-min Rain = 0
KPA1 180603Z 17010KT 03/M02 A2997 RMK A01 T00321016  RH  071%=      5-min Rain = 0
KPA1 180604Z 17010KT 03/M02 A2997 RMK A01 T00311016  RH  071%=      5-min Rain = 0
KPA1 180605Z 17010KT 03/M02 A2997 RMK A01 T00311016  RH  071%=      5-min Rain = 0
KPA1 180606Z 17010KT 03/M02 A2997 RMK A01 T00311016  RH  072%=      5-min Rain = 0
KPA1 180607Z 17009KT 03/M02 A2997 RMK A01 T00311016  RH  071%=      5-min Rain = 0
KPA1 180608Z 17009KT 03/M02 A2997 RMK A01 T00301016  RH  072%=      5-min Rain = 0
KPA1 180609Z 17009KT 03/M02 A2997 RMK A01 T00301016  RH  072%=      5-min Rain = 0
KPA1 180610Z 18009KT 03/M02 A2997 RMK A01 T00291017  RH  072%=      5-min Rain = 0
KPA1 180611Z 17010KT 03/M02 A2997 RMK A01 T00291017  RH  072%=      5-min Rain = 0
KPA1 180612Z 17010KT 03/M02 A2997 RMK A01 T00291017  RH  072%=      5-min Rain = 0
KPA1 180613Z 17010KT 03/M02 A2997 RMK A01 T00291017  RH  072%=      5-min Rain = 0
KPA1 180614Z 17010KT 03/M02 A2997 RMK A01 T00281017  RH  072%=      5-min Rain = 0
KPA1 180615Z 17011KT 03/M02 A2997 RMK A01 T00291016  RH  072%=      5-min Rain = 0
KPA1 180616Z 17011KT 03/M02 A2997 RMK A01 T00291016  RH  072%=      5-min Rain = 0
KPA1 180617Z 17011KT 03/M02 A2997 RMK A01 T00301015  RH  072%=      5-min Rain = 0
KPA1 180618Z 17011KT 03/M02 A2997 RMK A01 T00301015  RH  072%=      5-min Rain = 0
KPA1 180619Z 18012KT 03/M01 A2997 RMK A01 T00311014  RH  072%=      5-min Rain = 0
KPA1 180620Z 17012KT 03/M01 A2997 RMK A01 T00331014  RH  072%=      5-min Rain = 0
KPA1 180621Z 17012KT 03/M01 A2997 RMK A01 T00331014  RH  071%=      5-min Rain = 0
KPA1 180622Z 17012KT 03/M01 A2997 RMK A01 T00331014  RH  071%=      5-min Rain = 0
KPA1 180623Z 17012KT 03/M01 A2997 RMK A01 T00341014  RH  071%=      5-min Rain = 0
KPA1 180624Z 17012KT 03/M02 A2997 RMK A01 T00331015  RH  071%=      5-min Rain = 0
KPA1 180625Z 17012KT 03/M02 A2997 RMK A01 T00331015  RH  071%=      5-min Rain = 0
KPA1 180626Z 17012KT 03/M02 A2996 RMK A01 T00331015  RH  071%=      5-min Rain = 0
KPA1 180627Z 18012KT 03/M02 A2996 RMK A01 T00331015  RH  071%=      5-min Rain = 0
KPA1 180628Z 17012KT 03/M02 A2996 RMK A01 T00331015  RH  071%=      5-min Rain = 0
KPA1 180629Z 18012KT 03/M02 A2996 RMK A01 T00321015  RH  071%=      5-min Rain = 0
KPA1 180630Z 18012KT 03/M02 A2996 RMK A01 T00321015  RH  071%=      5-min Rain = 0
KPA1 180631Z 17012KT 03/M02 A2996 RMK A01 T00321015  RH  071%=      5-min Rain = 0
KPA1 180632Z 17012KT 03/M02 A2996 RMK A01 T00321015  RH  071%=      5-min Rain = 0
KPA1 180633Z 17013KT 03/M02 A2996 RMK A01 T00311015  RH  071%=      5-min Rain = 0
KPA1 180634Z 17012KT 03/M02 A2996 RMK A01 T00311015  RH  072%=      5-min Rain = 0
KPA1 180635Z 18013KT 03/M02 A2996 RMK A01 T00311015  RH  072%=      5-min Rain = 0
KPA1 180636Z 18013KT 03/M02 A2996 RMK A01 T00311015  RH  072%=      5-min Rain = 0
KPA1 180637Z 18013KT 03/M02 A2996 RMK A01 T00311015  RH  072%=      5-min Rain = 0
KPA1 180638Z 18013KT 03/M02 A2996 RMK A01 T00311015  RH  072%=      5-min Rain = 0
KPA1 180639Z 18014KT 03/M02 A2996 RMK A01 T00311015  RH  072%=      5-min Rain = 0
KPA1 180640Z 18014KT 03/M01 A2996 RMK A01 T00321014  RH  072%=      5-min Rain = 0
KPA1 180641Z 18013KT 03/M01 A2995 RMK A01 T00321014  RH  071%=      5-min Rain = 0
KPA1 180642Z 18014KT 03/M02 A2995 RMK A01 T00321015  RH  071%=      5-min Rain = 0
KPA1 180643Z 18014KT 03/M01 A2995 RMK A01 T00331014  RH  071%=      5-min Rain = 0
KPA1 180644Z 18014KT 03/M01 A2995 RMK A01 T00331014  RH  071%=      5-min Rain = 0
KPA1 180645Z 18014KT 03/M01 A2995 RMK A01 T00331014  RH  071%=      5-min Rain = 0
KPA1 180646Z 18014KT 03/M01 A2995 RMK A01 T00331014  RH  071%=      5-min Rain = 0
KPA1 180647Z 18014KT 03/M01 A2995 RMK A01 T00341013  RH  071%=      5-min Rain = 0
KPA1 180648Z 18013KT 04/M01 A2995 RMK A01 T00351013  RH  071%=      5-min Rain = 0
KPA1 180649Z 18014KT 04/M01 A2995 RMK A01 T00371012  RH  070%=      5-min Rain = 0
KPA1 180650Z 18014KT 04/M01 A2994 RMK A01 T00391011  RH  070%=      5-min Rain = 0
KPA1 180651Z 18014KT 04/M01 A2994 RMK A01 T00401011  RH  069%=      5-min Rain = 0
KPA1 180652Z 18014KT 04/M01 A2994 RMK A01 T00421011  RH  069%=      5-min Rain = 0
KPA1 180653Z 18014KT 04/M01 A2994 RMK A01 T00421012  RH  068%=      5-min Rain = 0
KPA1 180654Z 18013KT 04/M01 A2994 RMK A01 T00411013  RH  068%=      5-min Rain = 0
KPA1 180655Z 18014KT 04/M01 A2994 RMK A01 T00411013  RH  068%=      5-min Rain = 0
KPA1 180656Z 18014KT 04/M01 A2994 RMK A01 T00401013  RH  068%=      5-min Rain = 0
KPA1 180657Z 17014KT 04/M01 A2994 RMK A01 T00401013  RH  069%=      5-min Rain = 0
KPA1 180658Z 17013KT 04/M01 A2994 RMK A01 T00391013  RH  069%=      5-min Rain = 0
KPA1 180659Z 17013KT 04/M01 A2994 RMK A01 T00381014  RH  069%=      5-min Rain = 0
KPA1 180700Z 17012KT 04/M01 A2994 RMK A01 T00371014  RH  069%=      5-min Rain = 0
KPA1 180701Z 17012KT 04/M01 A2994 RMK A01 T00361014  RH  070%=      5-min Rain = 0
KPA1 180702Z 17012KT 04/M02 A2994 RMK A01 T00351015  RH  070%=      5-min Rain = 0
KPA1 180703Z 18011KT 03/M02 A2994 RMK A01 T00341016  RH  070%=      5-min Rain = 0
KPA1 180704Z 18011KT 03/M02 A2994 RMK A01 T00331016  RH  070%=      5-min Rain = 0
KPA1 180705Z 18011KT 03/M02 A2994 RMK A01 T00321016  RH  071%=      5-min Rain = 0
KPA1 180706Z 18011KT 03/M02 A2994 RMK A01 T00311016  RH  071%=      5-min Rain = 0
KPA1 180707Z 17011KT 03/M02 A2994 RMK A01 T00301017  RH  071%=      5-min Rain = 0
KPA1 180708Z 18011KT 03/M02 A2994 RMK A01 T00301016  RH  072%=      5-min Rain = 0
KPA1 180709Z 18010KT 03/M02 A2994 RMK A01 T00291017  RH  072%=      5-min Rain = 0
KPA1 180710Z 18010KT 03/M02 A2994 RMK A01 T00281018  RH  072%=      5-min Rain = 0
KPA1 180711Z 18010KT 03/M02 A2994 RMK A01 T00281018  RH  072%=      5-min Rain = 0
KPA1 180712Z 18010KT 03/M02 A2993 RMK A01 T00271018  RH  072%=      5-min Rain = 0
KPA1 180713Z 18010KT 03/M02 A2993 RMK A01 T00261019  RH  072%=      5-min Rain = 0
KPA1 180714Z 17010KT 03/M02 A2993 RMK A01 T00251019  RH  073%=      5-min Rain = 0
KPA1 180715Z 17010KT 03/M02 A2993 RMK A01 T00251019  RH  073%=      5-min Rain = 0
KPA1 180716Z 17011KT 02/M02 A2993 RMK A01 T00241019  RH  073%=      5-min Rain = 0
KPA1 180717Z 17010KT 02/M02 A2992 RMK A01 T00241019  RH  073%=      5-min Rain = 0
KPA1 180718Z 17010KT 02/M02 A2992 RMK A01 T00241019  RH  073%=      5-min Rain = 0
KPA1 180719Z 17010KT 02/M02 A2992 RMK A01 T00231019  RH  074%=      5-min Rain = 0
KPA1 180720Z 17010KT 02/M02 A2992 RMK A01 T00231019  RH  074%=      5-min Rain = 0
KPA1 180721Z 17011KT 02/M02 A2992 RMK A01 T00231018  RH  074%=      5-min Rain = 0
KPA1 180722Z 17010KT 02/M02 A2992 RMK A01 T00241018  RH  074%=      5-min Rain = 0
KPA1 180723Z 17009KT 02/M02 A2992 RMK A01 T00241018  RH  074%=      5-min Rain = 0
KPA1 180724Z 18008KT 02/M02 A2992 RMK A01 T00241018  RH  074%=      5-min Rain = 0
KPA1 180725Z 18009KT 03/M02 A2992 RMK A01 T00251018  RH  073%=      5-min Rain = 0
KPA1 180726Z 18009KT 03/M02 A2992 RMK A01 T00251018  RH  073%=      5-min Rain = 0
KPA1 180727Z 18009KT 03/M02 A2992 RMK A01 T00251018  RH  073%=      5-min Rain = 0
KPA1 180728Z 19008KT 02/M02 A2992 RMK A01 T00241019  RH  073%=      5-min Rain = 0
KPA1 180729Z 19008KT 02/M02 A2992 RMK A01 T00241019  RH  073%=      5-min Rain = 0
KPA1 180730Z 19009KT 02/M02 A2992 RMK A01 T00231020  RH  073%=      5-min Rain = 0
KPA1 180731Z 18009KT 02/M02 A2992 RMK A01 T00231020  RH  073%=      5-min Rain = 0
KPA1 180732Z 18009KT 02/M02 A2991 RMK A01 T00231020  RH  073%=      5-min Rain = 0
KPA1 180733Z 18009KT 02/M02 A2991 RMK A01 T00221020  RH  074%=      5-min Rain = 0
KPA1 180734Z 18009KT 02/M02 A2991 RMK A01 T00221020  RH  074%=      5-min Rain = 0
KPA1 180735Z 18009KT 02/M02 A2991 RMK A01 T00211021  RH  074%=      5-min Rain = 0
KPA1 180736Z 18008KT 02/M02 A2991 RMK A01 T00211021  RH  074%=      5-min Rain = 0
KPA1 180737Z 18007KT 02/M02 A2991 RMK A01 T00211021  RH  074%=      5-min Rain = 0
KPA1 180738Z 18007KT 02/M02 A2991 RMK A01 T00201021  RH  074%=      5-min Rain = 0
KPA1 180739Z 18006KT 02/M02 A299 RMK A01 T00191022  RH  074%=      5-min Rain = 0
KPA1 180740Z 19006KT 02/M02 A299 RMK A01 T00191022  RH  074%=      5-min Rain = 0
KPA1 180741Z 18006KT 02/M02 A299 RMK A01 T00171023  RH  075%=      5-min Rain = 0
KPA1 180742Z 18006KT 02/M02 A299 RMK A01 T00171023  RH  075%=      5-min Rain = 0
KPA1 180743Z 18006KT 02/M02 A299 RMK A01 T00161024  RH  075%=      5-min Rain = 0
KPA1 180744Z 18007KT 02/M02 A299 RMK A01 T00151024  RH  075%=      5-min Rain = 0
KPA1 180745Z 18007KT 01/M02 A299 RMK A01 T00141024  RH  076%=      5-min Rain = 0
KPA1 180746Z 17008KT 01/M03 A299 RMK A01 T00131025  RH  076%=      5-min Rain = 0
KPA1 180747Z 18008KT 01/M02 A299 RMK A01 T00131024  RH  077%=      5-min Rain = 0
KPA1 180748Z 18008KT 01/M02 A299 RMK A01 T00131024  RH  077%=      5-min Rain = 0
KPA1 180749Z 18009KT 01/M02 A2989 RMK A01 T00131023  RH  077%=      5-min Rain = 0
KPA1 180750Z 18008KT 01/M02 A2989 RMK A01 T00141022  RH  077%=      5-min Rain = 0
KPA1 180751Z 18008KT 02/M02 A2989 RMK A01 T00161022  RH  076%=      5-min Rain = 0
KPA1 180752Z 18008KT 02/M02 A2989 RMK A01 T00161023  RH  076%=      5-min Rain = 0
KPA1 180753Z 18008KT 02/M02 A2989 RMK A01 T00151023  RH  076%=      5-min Rain = 0
KPA1 180754Z 18009KT 01/M02 A2989 RMK A01 T00141024  RH  076%=      5-min Rain = 0
KPA1 180755Z 18009KT 01/M02 A2989 RMK A01 T00141023  RH  076%=      5-min Rain = 0
KPA1 180756Z 18009KT 01/M02 A2989 RMK A01 T00131024  RH  076%=      5-min Rain = 0
KPA1 180757Z 18008KT 01/M02 A2989 RMK A01 T00131024  RH  077%=      5-min Rain = 0
KPA1 180758Z 18008KT 01/M02 A2989 RMK A01 T00131024  RH  076%=      5-min Rain = 0
KPA1 180759Z 18008KT 01/M02 A2989 RMK A01 T00131024  RH  076%=      5-min Rain = 0
KPA1 180800Z 17008KT 01/M02 A2988 RMK A01 T00121024  RH  077%=      5-min Rain = 0
KPA1 180801Z 17009KT 01/M02 A2988 RMK A01 T00121024  RH  077%=      5-min Rain = 0
KPA1 180802Z 17010KT 01/M02 A2988 RMK A01 T00131023  RH  077%=      5-min Rain = 0
KPA1 180803Z 17010KT 01/M02 A2988 RMK A01 T00141023  RH  077%=      5-min Rain = 0
KPA1 180804Z 17009KT 02/M02 A2988 RMK A01 T00151022  RH  076%=      5-min Rain = 0
KPA1 180805Z 18008KT 02/M02 A2988 RMK A01 T00151023  RH  076%=      5-min Rain = 0
KPA1 180806Z 18007KT 02/M02 A2989 RMK A01 T00161022  RH  076%=      5-min Rain = 0
KPA1 180807Z 19007KT 02/M02 A2989 RMK A01 T00171022  RH  075%=      5-min Rain = 0
KPA1 180808Z 19007KT 02/M02 A2989 RMK A01 T00171023  RH  075%=      5-min Rain = 0
KPA1 180809Z 19007KT 02/M02 A2989 RMK A01 T00171023  RH  075%=      5-min Rain = 0
KPA1 180810Z 19008KT 02/M02 A2989 RMK A01 T00181023  RH  074%=      5-min Rain = 0
KPA1 180811Z 19008KT 02/M02 A2989 RMK A01 T00181023  RH  074%=      5-min Rain = 0
KPA1 180812Z 19008KT 02/M02 A2989 RMK A01 T00181023  RH  074%=      5-min Rain = 0
KPA1 180813Z 19007KT 02/M02 A2989 RMK A01 T00181023  RH  074%=      5-min Rain = 0
KPA1 180814Z 19006KT 02/M02 A2989 RMK A01 T00181023  RH  074%=      5-min Rain = 0
KPA1 180815Z 19007KT 02/M02 A2989 RMK A01 T00181023  RH  074%=      5-min Rain = 0
KPA1 180816Z 19008KT 02/M02 A2989 RMK A01 T00171023  RH  075%=      5-min Rain = 0
KPA1 180817Z 19008KT 02/M02 A2989 RMK A01 T00171023  RH  075%=      5-min Rain = 0
KPA1 180818Z 19007KT 02/M02 A2989 RMK A01 T00171023  RH  075%=      5-min Rain = 0
KPA1 180819Z 19007KT 02/M02 A2989 RMK A01 T00171023  RH  075%=      5-min Rain = 0
KPA1 180820Z 19008KT 02/M02 A2989 RMK A01 T00171023  RH  075%=      5-min Rain = 0
KPA1 180821Z 19009KT 02/M02 A2989 RMK A01 T00171023  RH  075%=      5-min Rain = 0
KPA1 180822Z 19009KT 02/M02 A2989 RMK A01 T00181021  RH  075%=      5-min Rain = 0
KPA1 180823Z 19010KT 02/M02 A2989 RMK A01 T00201020  RH  075%=      5-min Rain = 0
KPA1 180824Z 19009KT 02/M02 A2989 RMK A01 T00221020  RH  074%=      5-min Rain = 0
KPA1 180825Z 19009KT 02/M02 A2989 RMK A01 T00231020  RH  073%=      5-min Rain = 0
KPA1 180826Z 18009KT 02/M02 A2989 RMK A01 T00241019  RH  073%=      5-min Rain = 0
KPA1 180827Z 19009KT 02/M02 A2989 RMK A01 T00241019  RH  073%=      5-min Rain = 0
KPA1 180828Z 19009KT 03/M02 A2989 RMK A01 T00251019  RH  073%=      5-min Rain = 0
KPA1 180829Z 19010KT 03/M02 A2988 RMK A01 T00261018  RH  073%=      5-min Rain = 0
KPA1 180830Z 18009KT 03/M02 A2988 RMK A01 T00271018  RH  072%=      5-min Rain = 0
KPA1 180831Z 18010KT 03/M02 A2988 RMK A01 T00271018  RH  072%=      5-min Rain = 0
KPA1 180832Z 18010KT 03/M02 A2988 RMK A01 T00281018  RH  072%=      5-min Rain = 0
KPA1 180833Z 18010KT 03/M02 A2988 RMK A01 T00281018  RH  072%=      5-min Rain = 0
KPA1 180834Z 18011KT 03/M02 A2988 RMK A01 T00281018  RH  072%=      5-min Rain = 0
KPA1 180835Z 18011KT 03/M02 A2988 RMK A01 T00271019  RH  072%=      5-min Rain = 0
KPA1 180836Z 18011KT 03/M02 A2988 RMK A01 T00271019  RH  072%=      5-min Rain = 0
KPA1 180837Z 18010KT 03/M02 A2988 RMK A01 T00271019  RH  072%=      5-min Rain = 0
KPA1 180838Z 18011KT 03/M02 A2988 RMK A01 T00271019  RH  072%=      5-min Rain = 0
KPA1 180839Z 18011KT 03/M02 A2988 RMK A01 T00271019  RH  072%=      5-min Rain = 0
KPA1 180840Z 18010KT 03/M02 A2988 RMK A01 T00281018  RH  072%=      5-min Rain = 0
KPA1 180841Z 18010KT 03/M02 A2988 RMK A01 T00281018  RH  072%=      5-min Rain = 0
KPA1 180842Z 17010KT 03/M02 A2988 RMK A01 T00291018  RH  071%=      5-min Rain = 0
KPA1 180843Z 17010KT 03/M02 A2988 RMK A01 T00301017  RH  071%=      5-min Rain = 0
KPA1 180844Z 18010KT 03/M02 A2988 RMK A01 T00301017  RH  071%=      5-min Rain = 0
KPA1 180845Z 18010KT 03/M02 A2988 RMK A01 T00301017  RH  071%=      5-min Rain = 0
KPA1 180846Z 18009KT 03/M02 A2988 RMK A01 T00301017  RH  071%=      5-min Rain = 0
KPA1 180847Z 18009KT 03/M02 A2988 RMK A01 T00301017  RH  071%=      5-min Rain = 0
KPA1 180848Z 18009KT 03/M02 A2988 RMK A01 T00301017  RH  071%=      5-min Rain = 0
KPA1 180849Z 18009KT 03/M02 A2987 RMK A01 T00301017  RH  071%=      5-min Rain = 0
KPA1 180850Z 18008KT 03/M02 A2988 RMK A01 T00301017  RH  071%=      5-min Rain = 0
KPA1 180851Z 18009KT 03/M02 A2988 RMK A01 T00291018  RH  071%=      5-min Rain = 0
KPA1 180852Z 18008KT 03/M02 A2988 RMK A01 T00291018  RH  071%=      5-min Rain = 0
KPA1 180853Z 18008KT 03/M02 A2988 RMK A01 T00291018  RH  071%=      5-min Rain = 0
KPA1 180854Z 18009KT 03/M02 A2988 RMK A01 T00281018  RH  071%=      5-min Rain = 0
KPA1 180855Z 18008KT 03/M02 A2988 RMK A01 T00281018  RH  072%=      5-min Rain = 0
KPA1 180856Z 18008KT 03/M02 A2988 RMK A01 T00281019  RH  072%=      5-min Rain = 0
KPA1 180857Z 18008KT 03/M02 A2988 RMK A01 T00271019  RH  072%=      5-min Rain = 0
KPA1 180858Z 18008KT 03/M02 A2988 RMK A01 T00261020  RH  072%=      5-min Rain = 0
KPA1 180859Z 18008KT 03/M02 A2988 RMK A01 T00251020  RH  072%=      5-min Rain = 0
KPA1 180900Z 18008KT 02/M02 A2987 RMK A01 T00241020  RH  072%=      5-min Rain = 0
KPA1 180901Z 18008KT 02/M02 A2987 RMK A01 T00241020  RH  072%=      5-min Rain = 0
KPA1 180902Z 18009KT 02/M02 A2987 RMK A01 T00241020  RH  072%=      5-min Rain = 0
KPA1 180903Z 18009KT 02/M02 A2987 RMK A01 T00241020  RH  072%=      5-min Rain = 0
KPA1 180904Z 18009KT 02/M02 A2987 RMK A01 T00241021  RH  072%=      5-min Rain = 0
KPA1 180905Z 18009KT 02/M02 A2987 RMK A01 T00241021  RH  072%=      5-min Rain = 0
KPA1 180906Z 19009KT 02/M02 A2987 RMK A01 T00241020  RH  072%=      5-min Rain = 0
KPA1 180907Z 19009KT 02/M02 A2987 RMK A01 T00241020  RH  072%=      5-min Rain = 0
KPA1 180908Z 19009KT 03/M02 A2987 RMK A01 T00251020  RH  072%=      5-min Rain = 0
KPA1 180909Z 19009KT 03/M02 A2987 RMK A01 T00251020  RH  072%=      5-min Rain = 0
KPA1 180910Z 19009KT 02/M02 A2987 RMK A01 T00241020  RH  073%=      5-min Rain = 0
KPA1 180911Z 19009KT 02/M02 A2987 RMK A01 T00241020  RH  073%=      5-min Rain = 0
KPA1 180912Z 19009KT 02/M02 A2986 RMK A01 T00241019  RH  073%=      5-min Rain = 0
KPA1 180913Z 19009KT 02/M02 A2986 RMK A01 T00241019  RH  073%=      5-min Rain = 0
KPA1 180914Z 20009KT 03/M02 A2986 RMK A01 T00251019  RH  073%=      5-min Rain = 0
KPA1 180915Z 20009KT 03/M02 A2986 RMK A01 T00251019  RH  073%=      5-min Rain = 0
KPA1 180916Z 20008KT 03/M02 A2986 RMK A01 T00251019  RH  073%=      5-min Rain = 0
KPA1 180917Z 20008KT 03/M02 A2986 RMK A01 T00251019  RH  073%=      5-min Rain = 0
KPA1 180918Z 20009KT 02/M02 A2986 RMK A01 T00231020  RH  073%=      5-min Rain = 0
KPA1 180919Z 20009KT 02/M02 A2986 RMK A01 T00221021  RH  073%=      5-min Rain = 0
KPA1 180920Z 20009KT 02/M02 A2986 RMK A01 T00201021  RH  074%=      5-min Rain = 0
KPA1 180921Z 20009KT 02/M02 A2986 RMK A01 T00191021  RH  074%=      5-min Rain = 0
KPA1 180922Z 20009KT 02/M02 A2986 RMK A01 T00181022  RH  075%=      5-min Rain = 0
KPA1 180923Z 20009KT 02/M02 A2986 RMK A01 T00161022  RH  075%=      5-min Rain = 0
KPA1 180924Z 20009KT 02/M02 A2986 RMK A01 T00161022  RH  076%=      5-min Rain = 0
KPA1 180925Z 20008KT 02/M02 A2986 RMK A01 T00151022  RH  076%=      5-min Rain = 0
KPA1 180926Z 20008KT 02/M02 A2986 RMK A01 T00151022  RH  076%=      5-min Rain = 0
KPA1 180927Z 20008KT 01/M02 A2986 RMK A01 T00141023  RH  076%=      5-min Rain = 0
KPA1 180928Z 20008KT 01/M02 A2986 RMK A01 T00131024  RH  076%=      5-min Rain = 0
KPA1 180929Z 20008KT 01/M03 A2986 RMK A01 T00121025  RH  077%=      5-min Rain = 0
KPA1 180930Z 20008KT 01/M03 A2986 RMK A01 T00101025  RH  077%=      5-min Rain = 0
KPA1 180931Z 20008KT 01/M03 A2986 RMK A01 T00091026  RH  078%=      5-min Rain = 0
KPA1 180932Z 19008KT 01/M03 A2986 RMK A01 T00091025  RH  078%=      5-min Rain = 0
KPA1 180933Z 19009KT 01/M03 A2986 RMK A01 T00081025  RH  079%=      5-min Rain = 0
KPA1 180934Z 19009KT 01/M02 A2986 RMK A01 T00091024  RH  079%=      5-min Rain = 0
KPA1 180935Z 19008KT 01/M02 A2985 RMK A01 T00101022  RH  079%=      5-min Rain = 0
KPA1 180936Z 19008KT 01/M02 A2985 RMK A01 T00121021  RH  079%=      5-min Rain = 0
KPA1 180937Z 19009KT 02/M02 A2985 RMK A01 T00151019  RH  078%=      5-min Rain = 0
KPA1 180938Z 19009KT 02/M02 A2985 RMK A01 T00181018  RH  077%=      5-min Rain = 0
KPA1 180939Z 18009KT 02/M02 A2985 RMK A01 T00211017  RH  076%=      5-min Rain = 0
KPA1 180940Z 18009KT 03/M02 A2984 RMK A01 T00251016  RH  075%=      5-min Rain = 0
KPA1 180941Z 18009KT 03/M02 A2984 RMK A01 T00271016  RH  073%=      5-min Rain = 0
KPA1 180942Z 18009KT 03/M02 A2984 RMK A01 T00291017  RH  072%=      5-min Rain = 0
KPA1 180943Z 18008KT 03/M02 A2984 RMK A01 T00301017  RH  071%=      5-min Rain = 0
KPA1 180944Z 19008KT 03/M02 A2984 RMK A01 T00321017  RH  070%=      5-min Rain = 0
KPA1 180945Z 19009KT 03/M02 A2984 RMK A01 T00331018  RH  070%=      5-min Rain = 0
KPA1 180946Z 19008KT 03/M02 A2984 RMK A01 T00341018  RH  069%=      5-min Rain = 0
KPA1 180947Z 19008KT 04/M02 A2984 RMK A01 T00351017  RH  068%=      5-min Rain = 0
KPA1 180948Z 19009KT 04/M02 A2984 RMK A01 T00361018  RH  068%=      5-min Rain = 0
KPA1 180949Z 19009KT 04/M02 A2984 RMK A01 T00361018  RH  068%=      5-min Rain = 0
KPA1 180950Z 19010KT 04/M02 A2984 RMK A01 T00371018  RH  067%=      5-min Rain = 0
KPA1 180951Z 19010KT 04/M02 A2984 RMK A01 T00391017  RH  067%=      5-min Rain = 0
KPA1 180952Z 19009KT 04/M02 A2984 RMK A01 T00411017  RH  066%=      5-min Rain = 0
KPA1 180953Z 19010KT 04/M02 A2984 RMK A01 T00421018  RH  065%=      5-min Rain = 0
KPA1 180954Z 19010KT 04/M02 A2984 RMK A01 T00431018  RH  065%=      5-min Rain = 0
KPA1 180955Z 19009KT 04/M02 A2984 RMK A01 T00431018  RH  064%=      5-min Rain = 0
KPA1 180956Z 19010KT 04/M02 A2984 RMK A01 T00441019  RH  064%=      5-min Rain = 0
KPA1 180957Z 19010KT 04/M02 A2984 RMK A01 T00441019  RH  064%=      5-min Rain = 0
KPA1 180958Z 19010KT 04/M02 A2984 RMK A01 T00441019  RH  063%=      5-min Rain = 0
KPA1 180959Z 18010KT 04/M02 A2984 RMK A01 T00441019  RH  063%=      5-min Rain = 0
KPA1 181000Z 18010KT 05/M02 A2984 RMK A01 T00451019  RH  063%=      5-min Rain = 0
KPA1 181001Z 18010KT 05/M02 A2984 RMK A01 T00451020  RH  063%=      5-min Rain = 0
KPA1 181002Z 18009KT 04/M02 A2984 RMK A01 T00441020  RH  063%=      5-min Rain = 0
KPA1 181003Z 18009KT 04/M02 A2984 RMK A01 T00441021  RH  063%=      5-min Rain = 0
KPA1 181004Z 18009KT 04/M02 A2984 RMK A01 T00441021  RH  063%=      5-min Rain = 0
KPA1 181005Z 18009KT 04/M02 A2984 RMK A01 T00431021  RH  063%=      5-min Rain = 0
KPA1 181006Z 18010KT 04/M02 A2983 RMK A01 T00431022  RH  063%=      5-min Rain = 0
KPA1 181007Z 19010KT 04/M02 A2983 RMK A01 T00441021  RH  062%=      5-min Rain = 0
KPA1 181008Z 19009KT 04/M02 A2983 RMK A01 T00441022  RH  062%=      5-min Rain = 0
KPA1 181009Z 19009KT 04/M02 A2983 RMK A01 T00441022  RH  062%=      5-min Rain = 0
KPA1 181010Z 19009KT 04/M02 A2983 RMK A01 T00431023  RH  062%=      5-min Rain = 0
KPA1 181011Z 19009KT 04/M02 A2983 RMK A01 T00431023  RH  062%=      5-min Rain = 0
KPA1 181012Z 19008KT 04/M02 A2983 RMK A01 T00431023  RH  063%=      5-min Rain = 0
KPA1 181013Z 19008KT 04/M02 A2983 RMK A01 T00431022  RH  063%=      5-min Rain = 0
KPA1 181014Z 19008KT 04/M02 A2983 RMK A01 T00421023  RH  063%=      5-min Rain = 0
KPA1 181015Z 19008KT 04/M02 A2983 RMK A01 T00421023  RH  063%=      5-min Rain = 0
KPA1 181016Z 19008KT 04/M02 A2983 RMK A01 T00411023  RH  063%=      5-min Rain = 0
KPA1 181017Z 19008KT 04/M02 A2983 RMK A01 T00401024  RH  063%=      5-min Rain = 0
KPA1 181018Z 19008KT 04/M02 A2983 RMK A01 T00401024  RH  063%=      5-min Rain = 0
KPA1 181019Z 18008KT 04/M02 A2982 RMK A01 T00401024  RH  063%=      5-min Rain = 0
KPA1 181020Z 18009KT 04/M02 A2982 RMK A01 T00381024  RH  064%=      5-min Rain = 0
KPA1 181021Z 18008KT 04/M02 A2982 RMK A01 T00381024  RH  064%=      5-min Rain = 0
KPA1 181022Z 18008KT 04/M02 A2982 RMK A01 T00371024  RH  064%=      5-min Rain = 0
KPA1 181023Z 19008KT 04/M02 A2982 RMK A01 T00371024  RH  064%=      5-min Rain = 0
KPA1 181024Z 20008KT 04/M02 A2982 RMK A01 T00381023  RH  064%=      5-min Rain = 0
KPA1 181025Z 20007KT 04/M02 A2982 RMK A01 T00381024  RH  064%=      5-min Rain = 0
KPA1 181026Z 20006KT 04/M03 A2982 RMK A01 T00361025  RH  064%=      5-min Rain = 0
KPA1 181027Z 21007KT 04/M03 A2982 RMK A01 T00351025  RH  065%=      5-min Rain = 0
KPA1 181028Z 20006KT 04/M02 A2982 RMK A01 T00351024  RH  065%=      5-min Rain = 0
KPA1 181029Z 21006KT 03/M03 A2982 RMK A01 T00341025  RH  065%=      5-min Rain = 0
KPA1 181030Z 20006KT 03/M03 A2982 RMK A01 T00331025  RH  066%=      5-min Rain = 0
KPA1 181031Z 21007KT 03/M03 A2982 RMK A01 T00331025  RH  066%=      5-min Rain = 0
KPA1 181032Z 20006KT 03/M03 A2982 RMK A01 T00331025  RH  066%=      5-min Rain = 0
KPA1 181033Z 20007KT 03/M03 A2981 RMK A01 T00321026  RH  066%=      5-min Rain = 0
KPA1 181034Z 20006KT 03/M03 A2981 RMK A01 T00311026  RH  066%=      5-min Rain = 0
KPA1 181035Z 20006KT 03/M03 A2981 RMK A01 T00301026  RH  067%=      5-min Rain = 0
KPA1 181036Z 20007KT 03/M03 A2981 RMK A01 T00301026  RH  067%=      5-min Rain = 0
KPA1 181037Z 20007KT 03/M03 A2981 RMK A01 T00301026  RH  067%=      5-min Rain = 0
KPA1 181038Z 20006KT 03/M03 A2981 RMK A01 T00291026  RH  067%=      5-min Rain = 0
KPA1 181039Z 19007KT 03/M03 A2981 RMK A01 T00281027  RH  067%=      5-min Rain = 0
KPA1 181040Z 19007KT 03/M03 A2981 RMK A01 T00271027  RH  067%=      5-min Rain = 0
KPA1 181041Z 20007KT 03/M03 A2981 RMK A01 T00271027  RH  068%=      5-min Rain = 0
KPA1 181042Z 20007KT 03/M03 A2981 RMK A01 T00271027  RH  068%=      5-min Rain = 0
KPA1 181043Z 19007KT 03/M03 A2981 RMK A01 T00271027  RH  068%=      5-min Rain = 0
KPA1 181044Z 19006KT 03/M03 A298 RMK A01 T00261027  RH  068%=      5-min Rain = 0
KPA1 181045Z 19006KT 03/M03 A298 RMK A01 T00261028  RH  068%=      5-min Rain = 0
KPA1 181046Z 19007KT 03/M03 A298 RMK A01 T00251027  RH  068%=      5-min Rain = 0
KPA1 181047Z 19006KT 03/M03 A298 RMK A01 T00251027  RH  068%=      5-min Rain = 0
KPA1 181048Z 20006KT 03/M03 A298 RMK A01 T00251027  RH  068%=      5-min Rain = 0
KPA1 181049Z 20005KT 03/M03 A298 RMK A01 T00251027  RH  068%=      5-min Rain = 0
KPA1 181050Z 20006KT 03/M03 A298 RMK A01 T00251028  RH  068%=      5-min Rain = 0
KPA1 181051Z 20006KT 02/M03 A298 RMK A01 T00241028  RH  068%=      5-min Rain = 0
KPA1 181052Z 20006KT 02/M03 A298 RMK A01 T00241028  RH  069%=      5-min Rain = 0
KPA1 181053Z 21006KT 02/M03 A298 RMK A01 T00231028  RH  069%=      5-min Rain = 0
KPA1 181054Z 21006KT 02/M03 A298 RMK A01 T00231028  RH  069%=      5-min Rain = 0
KPA1 181055Z 21007KT 02/M03 A298 RMK A01 T00231028  RH  069%=      5-min Rain = 0
KPA1 181056Z 20007KT 02/M03 A298 RMK A01 T00231027  RH  069%=      5-min Rain = 0
KPA1 181057Z 21007KT 02/M03 A298 RMK A01 T00241027  RH  069%=      5-min Rain = 0
KPA1 181058Z 21008KT 03/M03 A2979 RMK A01 T00261026  RH  069%=      5-min Rain = 0
KPA1 181059Z 21008KT 03/M03 A2979 RMK A01 T00271026  RH  068%=      5-min Rain = 0
KPA1 181100Z 21008KT 03/M03 A2979 RMK A01 T00271027  RH  068%=      5-min Rain = 0
KPA1 181101Z 21009KT 03/M03 A2979 RMK A01 T00291025  RH  068%=      5-min Rain = 0
KPA1 181102Z 21009KT 03/M02 A2979 RMK A01 T00311024  RH  067%=      5-min Rain = 0
KPA1 181103Z 21009KT 03/M02 A2979 RMK A01 T00321024  RH  067%=      5-min Rain = 0
KPA1 181104Z 21009KT 03/M02 A2979 RMK A01 T00331024  RH  066%=      5-min Rain = 0
KPA1 181105Z 21009KT 03/M02 A2979 RMK A01 T00331024  RH  066%=      5-min Rain = 0
KPA1 181106Z 21009KT 03/M02 A2979 RMK A01 T00341024  RH  066%=      5-min Rain = 0
KPA1 181107Z 21010KT 04/M02 A2979 RMK A01 T00361023  RH  065%=      5-min Rain = 0
KPA1 181108Z 21010KT 04/M02 A2979 RMK A01 T00391023  RH  064%=      5-min Rain = 0
KPA1 181109Z 21010KT 04/M02 A2978 RMK A01 T00391024  RH  064%=      5-min Rain = 0
KPA1 181110Z 21010KT 04/M02 A2978 RMK A01 T00401024  RH  063%=      5-min Rain = 0
KPA1 181111Z 21010KT 04/M02 A2978 RMK A01 T00401024  RH  063%=      5-min Rain = 0
KPA1 181112Z 21010KT 04/M03 A2978 RMK A01 T00411025  RH  062%=      5-min Rain = 0
KPA1 181113Z 21010KT 04/M03 A2978 RMK A01 T00411025  RH  062%=      5-min Rain = 0
KPA1 181114Z 21009KT 04/M03 A2978 RMK A01 T00411025  RH  062%=      5-min Rain = 0
KPA1 181115Z 21009KT 04/M03 A2978 RMK A01 T00411025  RH  062%=      5-min Rain = 0
KPA1 181116Z 20009KT 04/M03 A2978 RMK A01 T00411025  RH  062%=      5-min Rain = 0
KPA1 181117Z 20010KT 04/M03 A2977 RMK A01 T00401025  RH  062%=      5-min Rain = 0
KPA1 181118Z 20009KT 04/M03 A2977 RMK A01 T00401026  RH  062%=      5-min Rain = 0
KPA1 181119Z 20010KT 04/M03 A2977 RMK A01 T00401026  RH  062%=      5-min Rain = 0
KPA1 181120Z 21010KT 04/M03 A2977 RMK A01 T00401026  RH  062%=      5-min Rain = 0
KPA1 181121Z 21009KT 04/M03 A2977 RMK A01 T00421025  RH  062%=      5-min Rain = 0
KPA1 181122Z 21010KT 04/M03 A2977 RMK A01 T00421025  RH  062%=      5-min Rain = 0
KPA1 181123Z 21010KT 04/M03 A2977 RMK A01 T00431025  RH  061%=      5-min Rain = 0
KPA1 181124Z 21011KT 05/M02 A2977 RMK A01 T00451024  RH  061%=      5-min Rain = 0
KPA1 181125Z 21012KT 05/M02 A2977 RMK A01 T00481024  RH  060%=      5-min Rain = 0
KPA1 181126Z 21010KT 05/M02 A2976 RMK A01 T00501023  RH  059%=      5-min Rain = 0
KPA1 181127Z 21012KT 05/M02 A2976 RMK A01 T00521023  RH  058%=      5-min Rain = 0
KPA1 181128Z 22012KT 05/M02 A2976 RMK A01 T00531023  RH  058%=      5-min Rain = 0
KPA1 181129Z 22012KT 05/M02 A2976 RMK A01 T00541023  RH  057%=      5-min Rain = 0
KPA1 181130Z 22012KT 06/M02 A2976 RMK A01 T00561023  RH  057%=      5-min Rain = 0
KPA1 181131Z 22012KT 06/M02 A2976 RMK A01 T00571023  RH  056%=      5-min Rain = 0
KPA1 181132Z 22012KT 06/M02 A2976 RMK A01 T00581023  RH  056%=      5-min Rain = 0
KPA1 181133Z 21012KT 06/M02 A2976 RMK A01 T00591023  RH  055%=      5-min Rain = 0
KPA1 181134Z 22012KT 06/M02 A2976 RMK A01 T00601024  RH  055%=      5-min Rain = 0
KPA1 181135Z 21013KT 06/M02 A2976 RMK A01 T00601024  RH  055%=      5-min Rain = 0
KPA1 181136Z 21012KT 06/M03 A2975 RMK A01 T00601025  RH  055%=      5-min Rain = 0
KPA1 181137Z 21012KT 06/M03 A2975 RMK A01 T00601025  RH  055%=      5-min Rain = 0
KPA1 181138Z 22013KT 06/M03 A2976 RMK A01 T00591025  RH  055%=      5-min Rain = 0
KPA1 181139Z 22013KT 06/M03 A2976 RMK A01 T00591025  RH  055%=      5-min Rain = 0
KPA1 181140Z 22013KT 06/M03 A2976 RMK A01 T00601026  RH  054%=      5-min Rain = 0
KPA1 181141Z 22014KT 06/M03 A2975 RMK A01 T00601026  RH  054%=      5-min Rain = 0
KPA1 181142Z 21015KT 06/M03 A2975 RMK A01 T00601026  RH  054%=      5-min Rain = 0
KPA1 181143Z 22015KT 06/M03 A2975 RMK A01 T00611026  RH  054%=      5-min Rain = 0
KPA1 181144Z 21015KT 06/M03 A2975 RMK A01 T00621026  RH  053%=      5-min Rain = 0
KPA1 181145Z 22013KT 06/M03 A2975 RMK A01 T00621026  RH  053%=      5-min Rain = 0
KPA1 181146Z 22013KT 06/M03 A2975 RMK A01 T00631026  RH  053%=      5-min Rain = 0
KPA1 181147Z 22014KT 06/M03 A2975 RMK A01 T00621026  RH  053%=      5-min Rain = 0
KPA1 181148Z 22014KT 06/M03 A2975 RMK A01 T00621026  RH  053%=      5-min Rain = 0
KPA1 181149Z 22013KT 06/M03 A2975 RMK A01 T00631026  RH  053%=      5-min Rain = 0
KPA1 181150Z 22014KT 06/M03 A2975 RMK A01 T00631026  RH  053%=      5-min Rain = 0
KPA1 181151Z 22014KT 06/M03 A2975 RMK A01 T00621026  RH  053%=      5-min Rain = 0
KPA1 181152Z 22014KT 06/M03 A2975 RMK A01 T00621026  RH  053%=      5-min Rain = 0
KPA1 181153Z 22015KT 06/M03 A2974 RMK A01 T00621026  RH  053%=      5-min Rain = 0
KPA1 181154Z 22015KT 06/M03 A2974 RMK A01 T00631026  RH  053%=      5-min Rain = 0
KPA1 181155Z 22017KT 06/M03 A2974 RMK A01 T00641027  RH  052%=      5-min Rain = 0
KPA1 181156Z 22016G21KT 06/M03 A2975 RMK A01 T00641027  RH  052%=      5-min Rain = 0
KPA1 181157Z 22017KT 06/M03 A2975 RMK A01 T00641028  RH  052%=      5-min Rain = 0
KPA1 181158Z 22015KT 06/M03 A2974 RMK A01 T00641028  RH  052%=      5-min Rain = 0
KPA1 181159Z 22015KT 06/M03 A2975 RMK A01 T00641028  RH  052%=      5-min Rain = 0
KPA1 181200Z 22015KT 06/M03 A2975 RMK A01 T00631028  RH  052%=      5-min Rain = 0
KPA1 181201Z 22016KT 06/M03 A2974 RMK A01 T00631028  RH  052%=      5-min Rain = 0
KPA1 181202Z 22015KT 06/M03 A2974 RMK A01 T00631028  RH  052%=      5-min Rain = 0
KPA1 181203Z 22015KT 06/M03 A2974 RMK A01 T00621028  RH  052%=      5-min Rain = 0
KPA1 181204Z 22014KT 06/M03 A2974 RMK A01 T00621028  RH  052%=      5-min Rain = 0
KPA1 181205Z 22014KT 06/M03 A2974 RMK A01 T00611028  RH  053%=      5-min Rain = 0
KPA1 181206Z 22014KT 06/M03 A2974 RMK A01 T00611028  RH  053%=      5-min Rain = 0
KPA1 181207Z 22015KT 06/M03 A2974 RMK A01 T00601028  RH  053%=      5-min Rain = 0
KPA1 181208Z 22015KT 06/M03 A2974 RMK A01 T00611028  RH  053%=      5-min Rain = 0
KPA1 181209Z 22014KT 06/M03 A2974 RMK A01 T00611027  RH  053%=      5-min Rain = 0
KPA1 181210Z 22015KT 06/M03 A2974 RMK A01 T00621028  RH  053%=      5-min Rain = 0
KPA1 181211Z 22015KT 06/M03 A2974 RMK A01 T00621028  RH  053%=      5-min Rain = 0
KPA1 181212Z 22015KT 06/M03 A2974 RMK A01 T00631028  RH  052%=      5-min Rain = 0
KPA1 181213Z 22015KT 06/M03 A2974 RMK A01 T00631028  RH  052%=      5-min Rain = 0
KPA1 181214Z 22014KT 06/M03 A2974 RMK A01 T00631028  RH  052%=      5-min Rain = 0
KPA1 181215Z 22016KT 06/M03 A2974 RMK A01 T00621028  RH  052%=      5-min Rain = 0
KPA1 181216Z 22015KT 06/M03 A2974 RMK A01 T00621028  RH  052%=      5-min Rain = 0
KPA1 181217Z 22014KT 06/M03 A2974 RMK A01 T00621029  RH  052%=      5-min Rain = 0
KPA1 181218Z 22014KT 06/M03 A2974 RMK A01 T00621029  RH  052%=      5-min Rain = 0
KPA1 181219Z 22013KT 06/M03 A2974 RMK A01 T00611029  RH  052%=      5-min Rain = 0
KPA1 181220Z 22014KT 06/M03 A2974 RMK A01 T00601029  RH  053%=      5-min Rain = 0
KPA1 181221Z 22015KT 06/M03 A2974 RMK A01 T00601028  RH  053%=      5-min Rain = 0
KPA1 181222Z 22015KT 06/M03 A2974 RMK A01 T00601028  RH  053%=      5-min Rain = 0
KPA1 181223Z 22014KT 06/M03 A2974 RMK A01 T00601028  RH  053%=      5-min Rain = 0
KPA1 181224Z 22015KT 06/M03 A2974 RMK A01 T00601028  RH  053%=      5-min Rain = 0
KPA1 181225Z 22015KT 06/M03 A2974 RMK A01 T00601028  RH  053%=      5-min Rain = 0
KPA1 181226Z 22014KT 06/M03 A2974 RMK A01 T00601028  RH  053%=      5-min Rain = 0
KPA1 181227Z 22015KT 06/M03 A2974 RMK A01 T00591027  RH  054%=      5-min Rain = 0
KPA1 181228Z 22014KT 06/M03 A2974 RMK A01 T00591028  RH  054%=      5-min Rain = 0
KPA1 181229Z 22015KT 06/M03 A2974 RMK A01 T00591028  RH  054%=      5-min Rain = 0
KPA1 181230Z 22014KT 06/M03 A2974 RMK A01 T00581028  RH  054%=      5-min Rain = 0
KPA1 181231Z 23014KT 06/M03 A2974 RMK A01 T00581028  RH  054%=      5-min Rain = 0
KPA1 181232Z 23014KT 06/M03 A2974 RMK A01 T00581027  RH  054%=      5-min Rain = 0
KPA1 181233Z 22013KT 06/M03 A2974 RMK A01 T00581027  RH  054%=      5-min Rain = 0
KPA1 181234Z 22015KT 06/M03 A2974 RMK A01 T00571027  RH  055%=      5-min Rain = 0
KPA1 181235Z 22013KT 06/M03 A2974 RMK A01 T00571027  RH  055%=      5-min Rain = 0
KPA1 181236Z 22013G18KT 06/M03 A2974 RMK A01 T00571027  RH  055%=      5-min Rain = 0
KPA1 181237Z 23014KT 06/M03 A2973 RMK A01 T00571027  RH  055%=      5-min Rain = 0
KPA1 181238Z 23013KT 06/M03 A2973 RMK A01 T00581027  RH  055%=      5-min Rain = 0
KPA1 181239Z 22013KT 06/M03 A2973 RMK A01 T00581027  RH  055%=      5-min Rain = 0
KPA1 181240Z 23013KT 06/M03 A2973 RMK A01 T00581027  RH  054%=      5-min Rain = 0
KPA1 181241Z 23014KT 06/M03 A2974 RMK A01 T00581026  RH  055%=      5-min Rain = 0
KPA1 181242Z 23014KT 06/M03 A2974 RMK A01 T00581026  RH  055%=      5-min Rain = 0
KPA1 181243Z 23015KT 06/M03 A2974 RMK A01 T00581026  RH  055%=      5-min Rain = 0
KPA1 181244Z 23016KT 06/M03 A2974 RMK A01 T00591026  RH  055%=      5-min Rain = 0
KPA1 181245Z 22015KT 06/M03 A2974 RMK A01 T00591026  RH  054%=      5-min Rain = 0
KPA1 181246Z 22016KT 06/M03 A2973 RMK A01 T00601026  RH  054%=      5-min Rain = 0
KPA1 181247Z 22015KT 06/M03 A2973 RMK A01 T00601025  RH  054%=      5-min Rain = 0
KPA1 181248Z 22016KT 06/M03 A2973 RMK A01 T00601025  RH  054%=      5-min Rain = 0
KPA1 181249Z 22015KT 06/M03 A2973 RMK A01 T00611025  RH  054%=      5-min Rain = 0
KPA1 181250Z 22015KT 06/M03 A2973 RMK A01 T00611025  RH  054%=      5-min Rain = 0
KPA1 181251Z 22016KT 06/M03 A2973 RMK A01 T00611025  RH  054%=      5-min Rain = 0
KPA1 181252Z 22015G20KT 06/M03 A2973 RMK A01 T00621025  RH  054%=      5-min Rain = 0
KPA1 181253Z 22017KT 06/M03 A2973 RMK A01 T00621025  RH  054%=      5-min Rain = 0
KPA1 181254Z 22015KT 06/M02 A2973 RMK A01 T00631024  RH  054%=      5-min Rain = 0
KPA1 181255Z 22015KT 06/M02 A2973 RMK A01 T00631024  RH  054%=      5-min Rain = 0
KPA1 181256Z 22015KT 06/M02 A2973 RMK A01 T00641023  RH  054%=      5-min Rain = 0
KPA1 181257Z 22015KT 07/M02 A2973 RMK A01 T00651023  RH  053%=      5-min Rain = 0
KPA1 181258Z 21015KT 07/M02 A2973 RMK A01 T00661022  RH  053%=      5-min Rain = 0
KPA1 181259Z 22016KT 07/M02 A2973 RMK A01 T00661023  RH  053%=      5-min Rain = 0
KPA1 181300Z 22017KT 07/M02 A2973 RMK A01 T00671022  RH  053%=      5-min Rain = 0
KPA1 181301Z 22016KT 07/M02 A2973 RMK A01 T00681022  RH  053%=      5-min Rain = 0
KPA1 181302Z 22017KT 07/M02 A2973 RMK A01 T00691022  RH  052%=      5-min Rain = 0
KPA1 181303Z 23015KT 07/M02 A2973 RMK A01 T00701022  RH  052%=      5-min Rain = 0
KPA1 181304Z 22015G20KT 07/M02 A2973 RMK A01 T00701021  RH  052%=      5-min Rain = 0
KPA1 181305Z 22016G21KT 07/M02 A2973 RMK A01 T00701021  RH  052%=      5-min Rain = 0
KPA1 181306Z 23017KT 07/M02 A2972 RMK A01 T00701021  RH  052%=      5-min Rain = 0
KPA1 181307Z 22017KT 07/M02 A2972 RMK A01 T00711021  RH  052%=      5-min Rain = 0
KPA1 181308Z 22017KT 07/M02 A2973 RMK A01 T00721020  RH  052%=      5-min Rain = 0
KPA1 181309Z 22017KT 07/M02 A2973 RMK A01 T00721020  RH  052%=      5-min Rain = 0
KPA1 181310Z 23016KT 07/M02 A2973 RMK A01 T00731020  RH  052%=      5-min Rain = 0
KPA1 181311Z 23016KT 07/M02 A2973 RMK A01 T00731020  RH  052%=      5-min Rain = 0
KPA1 181312Z 23015KT 07/M02 A2973 RMK A01 T00731019  RH  052%=      5-min Rain = 0
KPA1 181313Z 23016KT 07/M02 A2972 RMK A01 T00731019  RH  052%=      5-min Rain = 0
KPA1 181314Z 22016KT 07/M02 A2972 RMK A01 T00741019  RH  052%=      5-min Rain = 0
KPA1 181315Z 22017KT 07/M02 A2972 RMK A01 T00741019  RH  052%=      5-min Rain = 0
KPA1 181316Z 22016KT 08/M02 A2972 RMK A01 T00751019  RH  051%=      5-min Rain = 0
KPA1 181317Z 23016KT 08/M02 A2972 RMK A01 T00751019  RH  051%=      5-min Rain = 0
KPA1 181318Z 23016KT 08/M02 A2973 RMK A01 T00751019  RH  051%=      5-min Rain = 0
KPA1 181319Z 22016KT 08/M02 A2972 RMK A01 T00751019  RH  051%=      5-min Rain = 0
KPA1 181320Z 22017KT 08/M02 A2972 RMK A01 T00751019  RH  051%=      5-min Rain = 0
KPA1 181321Z 22016KT 08/M02 A2972 RMK A01 T00761018  RH  051%=      5-min Rain = 0
KPA1 181322Z 22015KT 08/M02 A2972 RMK A01 T00761018  RH  051%=      5-min Rain = 0
KPA1 181323Z 22017KT 08/M02 A2972 RMK A01 T00761018  RH  051%=      5-min Rain = 0
KPA1 181324Z 22016KT 08/M02 A2972 RMK A01 T00761018  RH  051%=      5-min Rain = 0
KPA1 181325Z 22018KT 08/M02 A2972 RMK A01 T00771017  RH  051%=      5-min Rain = 0
KPA1 181326Z 22018KT 08/M02 A2972 RMK A01 T00781017  RH  051%=      5-min Rain = 0
KPA1 181327Z 23018KT 08/M02 A2972 RMK A01 T00791017  RH  051%=      5-min Rain = 0
KPA1 181328Z 23016KT 08/M02 A2973 RMK A01 T00801016  RH  051%=      5-min Rain = 0
KPA1 181329Z 23018KT 08/M02 A2973 RMK A01 T00801016  RH  051%=      5-min Rain = 0
KPA1 181330Z 24017KT 08/M02 A2973 RMK A01 T00811016  RH  050%=      5-min Rain = 0
KPA1 181331Z 24018KT 08/M02 A2973 RMK A01 T00821016  RH  050%=      5-min Rain = 0
KPA1 181332Z 24018KT 08/M02 A2973 RMK A01 T00821016  RH  050%=      5-min Rain = 0
KPA1 181333Z 24018KT 08/M02 A2973 RMK A01 T00821016  RH  050%=      5-min Rain = 0
KPA1 181334Z 24017KT 08/M02 A2973 RMK A01 T00821016  RH  050%=      5-min Rain = 0
KPA1 181335Z 24017KT 08/M02 A2973 RMK A01 T00811016  RH  050%=      5-min Rain = 0
KPA1 181336Z 23016KT 08/M02 A2973 RMK A01 T00811016  RH  050%=      5-min Rain = 0
KPA1 181337Z 24016KT 08/M02 A2973 RMK A01 T00811016  RH  051%=      5-min Rain = 0
KPA1 181338Z 24017KT 08/M02 A2973 RMK A01 T00811016  RH  051%=      5-min Rain = 0
KPA1 181339Z 24016KT 08/M02 A2973 RMK A01 T00811016  RH  051%=      5-min Rain = 0
KPA1 181340Z 23018KT 08/M02 A2973 RMK A01 T00811015  RH  051%=      5-min Rain = 0
KPA1 181341Z 23017KT 08/M02 A2973 RMK A01 T00821015  RH  050%=      5-min Rain = 0
KPA1 181342Z 23016G21KT 08/M02 A2973 RMK A01 T00831015  RH  050%=      5-min Rain = 0
KPA1 181343Z 23018KT 08/M02 A2973 RMK A01 T00821015  RH  050%=      5-min Rain = 0
KPA1 181344Z 23018KT 08/M02 A2973 RMK A01 T00831015  RH  050%=      5-min Rain = 0
KPA1 181345Z 23019KT 08/M01 A2973 RMK A01 T00841014  RH  050%=      5-min Rain = 0
KPA1 181346Z 23017KT 09/M01 A2973 RMK A01 T00851014  RH  050%=      5-min Rain = 0
KPA1 181347Z 23017G22KT 09/M01 A2973 RMK A01 T00851014  RH  050%=      5-min Rain = 0
KPA1 181348Z 23018KT 09/M01 A2973 RMK A01 T00851014  RH  050%=      5-min Rain = 0
KPA1 181349Z 23018KT 09/M01 A2973 RMK A01 T00851013  RH  050%=      5-min Rain = 0
KPA1 181350Z 23019KT 09/M01 A2973 RMK A01 T00851013  RH  050%=      5-min Rain = 0
KPA1 181351Z 23017KT 09/M01 A2973 RMK A01 T00861013  RH  050%=      5-min Rain = 0
KPA1 181352Z 23017KT 09/M01 A2973 RMK A01 T00861013  RH  050%=      5-min Rain = 0
KPA1 181353Z 23017KT 09/M01 A2973 RMK A01 T00861013  RH  050%=      5-min Rain = 0
KPA1 181354Z 24018KT 09/M01 A2973 RMK A01 T00861013  RH  050%=      5-min Rain = 0
KPA1 181355Z 24016KT 09/M01 A2973 RMK A01 T00861013  RH  050%=      5-min Rain = 0
KPA1 181356Z 24018KT 09/M01 A2973 RMK A01 T00861013  RH  050%=      5-min Rain = 0
KPA1 181357Z 24016KT 09/M01 A2973 RMK A01 T00871013  RH  050%=      5-min Rain = 0
KPA1 181358Z 24016KT 09/M01 A2973 RMK A01 T00861013  RH  050%=      5-min Rain = 0
KPA1 181359Z 24017KT 09/M01 A2973 RMK A01 T00861013  RH  050%=      5-min Rain = 0
KPA1 181400Z 24016KT 09/M01 A2973 RMK A01 T00861012  RH  050%=      5-min Rain = 0
KPA1 181401Z 24017KT 09/M01 A2973 RMK A01 T00861013  RH  050%=      5-min Rain = 0
KPA1 181402Z 24017KT 09/M01 A2973 RMK A01 T00861013  RH  050%=      5-min Rain = 0
KPA1 181403Z 24016KT 09/M01 A2973 RMK A01 T00871012  RH  050%=      5-min Rain = 0
KPA1 181404Z 24016KT 09/M01 A2973 RMK A01 T00871012  RH  050%=      5-min Rain = 0
KPA1 181405Z 24016KT 09/M01 A2973 RMK A01 T00871012  RH  050%=      5-min Rain = 0
KPA1 181406Z 24016KT 09/M01 A2973 RMK A01 T00871012  RH  050%=      5-min Rain = 0
KPA1 181407Z 24016KT 09/M01 A2973 RMK A01 T00871012  RH  050%=      5-min Rain = 0
KPA1 181408Z 24017KT 09/M01 A2973 RMK A01 T00871011  RH  050%=      5-min Rain = 0
KPA1 181409Z 24017KT 09/M01 A2973 RMK A01 T00881011  RH  050%=      5-min Rain = 0
KPA1 181410Z 24016KT 09/M01 A2973 RMK A01 T00881011  RH  050%=      5-min Rain = 0
KPA1 181411Z 24016KT 09/M01 A2973 RMK A01 T00881011  RH  050%=      5-min Rain = 0
KPA1 181412Z 24016KT 09/M01 A2973 RMK A01 T00881011  RH  050%=      5-min Rain = 0
KPA1 181413Z 24016KT 09/M01 A2973 RMK A01 T00891011  RH  050%=      5-min Rain = 0
KPA1 181414Z 24015KT 09/M01 A2972 RMK A01 T00891011  RH  050%=      5-min Rain = 0
KPA1 181415Z 24015KT 09/M01 A2973 RMK A01 T00891011  RH  050%=      5-min Rain = 0
KPA1 181416Z 24017KT 09/M01 A2972 RMK A01 T00891010  RH  050%=      5-min Rain = 0
KPA1 181417Z 24016KT 09/M01 A2972 RMK A01 T00891010  RH  050%=      5-min Rain = 0
KPA1 181418Z 24018KT 09/M01 A2972 RMK A01 T00901010  RH  049%=      5-min Rain = 0
KPA1 181419Z 24017KT 09/M01 A2972 RMK A01 T00901010  RH  049%=      5-min Rain = 0
KPA1 181420Z 24017KT 09/M01 A2972 RMK A01 T00911010  RH  049%=      5-min Rain = 0
KPA1 181421Z 24017KT 09/M01 A2972 RMK A01 T00911010  RH  049%=      5-min Rain = 0
KPA1 181422Z 24017KT 09/M01 A2972 RMK A01 T00911010  RH  049%=      5-min Rain = 0
KPA1 181423Z 24015KT 09/M01 A2972 RMK A01 T00911010  RH  049%=      5-min Rain = 0
KPA1 181424Z 24017KT 09/M01 A2972 RMK A01 T00911009  RH  049%=      5-min Rain = 0
KPA1 181425Z 24017KT 09/M01 A2972 RMK A01 T00921009  RH  049%=      5-min Rain = 0
KPA1 181426Z 24017KT 09/M01 A2973 RMK A01 T00921009  RH  049%=      5-min Rain = 0
KPA1 181427Z 24016KT 09/M01 A2972 RMK A01 T00921009  RH  049%=      5-min Rain = 0
KPA1 181428Z 24017KT 09/M01 A2972 RMK A01 T00921009  RH  049%=      5-min Rain = 0
KPA1 181429Z 23016KT 09/M01 A2972 RMK A01 T00931008  RH  049%=      5-min Rain = 0
KPA1 181430Z 24018KT 09/M01 A2972 RMK A01 T00921009  RH  049%=      5-min Rain = 0
KPA1 181431Z 24016G22KT 09/M01 A2972 RMK A01 T00931009  RH  049%=      5-min Rain = 0
KPA1 181432Z 24017KT 09/M01 A2973 RMK A01 T00941008  RH  049%=      5-min Rain = 0
KPA1 181433Z 24017KT 09/M01 A2973 RMK A01 T00941008  RH  049%=      5-min Rain = 0
KPA1 181434Z 24016KT 09/M01 A2972 RMK A01 T00941008  RH  049%=      5-min Rain = 0
KPA1 181435Z 24017KT 09/M01 A2972 RMK A01 T00941008  RH  049%=      5-min Rain = 0
KPA1 181436Z 24017KT 10/M01 A2972 RMK A01 T00951008  RH  049%=      5-min Rain = 0
KPA1 181437Z 23016KT 10/M01 A2972 RMK A01 T00951008  RH  049%=      5-min Rain = 0
KPA1 181438Z 23017KT 10/M01 A2972 RMK A01 T00951008  RH  049%=      5-min Rain = 0
KPA1 181439Z 23017KT 10/M01 A2972 RMK A01 T00961007  RH  049%=      5-min Rain = 0
KPA1 181440Z 23018KT 10/M01 A2972 RMK A01 T00961007  RH  049%=      5-min Rain = 0
KPA1 181441Z 24016KT 10/M01 A2972 RMK A01 T00961007  RH  048%=      5-min Rain = 0
KPA1 181442Z 23017KT 10/M01 A2972 RMK A01 T00961007  RH  049%=      5-min Rain = 0
KPA1 181443Z 23015KT 10/M01 A2972 RMK A01 T00971007  RH  048%=      5-min Rain = 0
KPA1 181444Z 23017KT 10/M01 A2972 RMK A01 T00971006  RH  049%=      5-min Rain = 0
KPA1 181445Z 23017KT 10/M01 A2972 RMK A01 T00971007  RH  048%=      5-min Rain = 0
KPA1 181446Z 23016KT 10/M01 A2972 RMK A01 T00981007  RH  048%=      5-min Rain = 0
KPA1 181447Z 23015KT 10/M01 A2972 RMK A01 T00981007  RH  048%=      5-min Rain = 0
KPA1 181448Z 23017KT 10/M01 A2972 RMK A01 T00981006  RH  048%=      5-min Rain = 0
KPA1 181449Z 23017KT 10/M01 A2972 RMK A01 T00981007  RH  048%=      5-min Rain = 0
KPA1 181450Z 24016KT 10/M01 A2972 RMK A01 T00991007  RH  048%=      5-min Rain = 0
KPA1 181451Z 23017KT 10/M01 A2972 RMK A01 T00991006  RH  048%=      5-min Rain = 0
KPA1 181452Z 24017KT 10/M01 A2972 RMK A01 T00991007  RH  048%=      5-min Rain = 0
KPA1 181453Z 24018KT 10/M01 A2971 RMK A01 T01001007  RH  048%=      5-min Rain = 0
KPA1 181454Z 24018KT 10/M01 A2972 RMK A01 T01001006  RH  047%=      5-min Rain = 0
KPA1 181455Z 24016KT 10/M01 A2972 RMK A01 T01011006  RH  047%=      5-min Rain = 0
KPA1 181456Z 24016KT 10/M01 A2972 RMK A01 T01011006  RH  047%=      5-min Rain = 0
KPA1 181457Z 24016KT 10/M01 A2972 RMK A01 T01011005  RH  048%=      5-min Rain = 0
KPA1 181458Z 24017KT 10/M01 A2972 RMK A01 T01011005  RH  048%=      5-min Rain = 0
KPA1 181459Z 24016KT 10/M01 A2972 RMK A01 T01021005  RH  048%=      5-min Rain = 0
KPA1 181500Z 24016KT 10/M00 A2972 RMK A01 T01021004  RH  048%=      5-min Rain = 0
KPA1 181501Z 24016KT 10/M00 A2971 RMK A01 T01021004  RH  048%=      5-min Rain = 0
KPA1 181502Z 24015KT 10/M00 A2971 RMK A01 T01031004  RH  048%=      5-min Rain = 0
KPA1 181503Z 24018KT 10/M00 A2971 RMK A01 T01031003  RH  048%=      5-min Rain = 0
KPA1 181504Z 24017KT 10/M00 A2971 RMK A01 T01041003  RH  047%=      5-min Rain = 0
KPA1 181505Z 24017KT 11/M00 A2971 RMK A01 T01051003  RH  047%=      5-min Rain = 0
KPA1 181506Z 24019KT 11/M00 A2971 RMK A01 T01051003  RH  047%=      5-min Rain = 0
KPA1 181507Z 24022KT 11/M00 A2971 RMK A01 T01061003  RH  047%=      5-min Rain = 0
KPA1 181508Z 24020KT 11/M00 A2971 RMK A01 T01061003  RH  047%=      5-min Rain = 0
KPA1 181509Z 24018KT 11/M00 A2971 RMK A01 T01071002  RH  047%=      5-min Rain = 0
KPA1 181510Z 24019G24KT 11/M00 A2971 RMK A01 T01071002  RH  047%=      5-min Rain = 0
KPA1 181511Z 24015KT 11/M00 A2971 RMK A01 T01071002  RH  047%=      5-min Rain = 0
KPA1 181512Z 24018KT 11/M00 A2971 RMK A01 T01071001  RH  047%=      5-min Rain = 0
KPA1 181513Z 24017KT 11/M00 A2971 RMK A01 T01081002  RH  047%=      5-min Rain = 0
KPA1 181514Z 25016KT 11/M00 A2971 RMK A01 T01081001  RH  047%=      5-min Rain = 0
KPA1 181515Z 25018KT 11/00 A2971 RMK A01 T010900-0  RH  047%=      5-min Rain = 0
KPA1 181516Z 25017KT 11/00 A2971 RMK A01 T01100000  RH  047%=      5-min Rain = 0
KPA1 181517Z 24016KT 11/00 A2971 RMK A01 T01100001  RH  047%=      5-min Rain = 0
KPA1 181518Z 25018G23KT 11/00 A2971 RMK A01 T01110002  RH  047%=      5-min Rain = 0
KPA1 181519Z 24018KT 11/00 A297 RMK A01 T01120002  RH  047%=      5-min Rain = 0
KPA1 181520Z 24019KT 11/00 A297 RMK A01 T01130002  RH  046%=      5-min Rain = 0
KPA1 181521Z 24019KT 11/00 A297 RMK A01 T01140003  RH  046%=      5-min Rain = 0
KPA1 181522Z 24022KT 12/00 A297 RMK A01 T01160004  RH  046%=      5-min Rain = 0
KPA1 181523Z 24019KT 12/00 A297 RMK A01 T01170004  RH  046%=      5-min Rain = 0
KPA1 181524Z 24019G24KT 12/01 A297 RMK A01 T01180005  RH  046%=      5-min Rain = 0
KPA1 181525Z 24019KT 12/01 A297 RMK A01 T01190005  RH  046%=      5-min Rain = 0
KPA1 181526Z 25023KT 12/01 A297 RMK A01 T01200006  RH  046%=      5-min Rain = 0
KPA1 181527Z 24019G24KT 12/01 A297 RMK A01 T01200006  RH  046%=      5-min Rain = 0
KPA1 181528Z 24021G26KT 12/01 A297 RMK A01 T01210007  RH  046%=      5-min Rain = 0
KPA1 181529Z 24021KT 12/01 A297 RMK A01 T01210007  RH  045%=      5-min Rain = 0
KPA1 181530Z 24020KT 12/01 A297 RMK A01 T01210007  RH  046%=      5-min Rain = 0
KPA1 181531Z 24022G27KT 12/01 A297 RMK A01 T01210007  RH  046%=      5-min Rain = 0
KPA1 181532Z 25023G28KT 12/01 A297 RMK A01 T01210007  RH  045%=      5-min Rain = 0
KPA1 181533Z 24023KT 12/01 A297 RMK A01 T01210007  RH  046%=      5-min Rain = 0
KPA1 181534Z 24021KT 12/01 A297 RMK A01 T01210007  RH  046%=      5-min Rain = 0
KPA1 181535Z 24021G26KT 12/01 A297 RMK A01 T01210007  RH  046%=      5-min Rain = 0
KPA1 181536Z 24023KT 12/01 A297 RMK A01 T01210007  RH  046%=      5-min Rain = 0
KPA1 181537Z 25024G29KT 12/01 A297 RMK A01 T01200007  RH  046%=      5-min Rain = 0
KPA1 181538Z 25023KT 12/01 A297 RMK A01 T01200007  RH  046%=      5-min Rain = 0
KPA1 181539Z 25022G27KT 12/01 A297 RMK A01 T01190007  RH  046%=      5-min Rain = 0
KPA1 181540Z 25024KT 12/01 A297 RMK A01 T01190007  RH  046%=      5-min Rain = 0
KPA1 181541Z 25023G28KT 12/01 A297 RMK A01 T01180007  RH  046%=      5-min Rain = 0
KPA1 181542Z 24021KT 12/01 A297 RMK A01 T01180007  RH  046%=      5-min Rain = 0
KPA1 181543Z 25023KT 12/01 A297 RMK A01 T01170007  RH  047%=      5-min Rain = 0
KPA1 181544Z 25022KT 12/01 A297 RMK A01 T01180007  RH  047%=      5-min Rain = 0
KPA1 181545Z 24024KT 12/01 A297 RMK A01 T01170007  RH  047%=      5-min Rain = 0
KPA1 181546Z 25026KT 12/01 A297 RMK A01 T01170007  RH  047%=      5-min Rain = 0
KPA1 181547Z 25020G25KT 12/01 A297 RMK A01 T01170008  RH  047%=      5-min Rain = 0
KPA1 181548Z 25022KT 12/01 A297 RMK A01 T01170009  RH  047%=      5-min Rain = 0
KPA1 181549Z 25022KT 12/01 A2969 RMK A01 T01170009  RH  047%=      5-min Rain = 0
KPA1 181550Z 25022KT 12/01 A2969 RMK A01 T01180010  RH  047%=      5-min Rain = 0
KPA1 181551Z 25023KT 12/01 A2969 RMK A01 T01180010  RH  048%=      5-min Rain = 0
KPA1 181552Z 25023G29KT 12/01 A2969 RMK A01 T01180011  RH  048%=      5-min Rain = 0
KPA1 181553Z 25025KT 12/01 A2969 RMK A01 T01190012  RH  048%=      5-min Rain = 0
KPA1 181554Z 25022G27KT 12/01 A2969 RMK A01 T01200012  RH  048%=      5-min Rain = 0
KPA1 181555Z 25024G30KT 12/01 A2969 RMK A01 T01200013  RH  048%=      5-min Rain = 0
KPA1 181556Z 25024KT 12/01 A2969 RMK A01 T01210014  RH  048%=      5-min Rain = 0
KPA1 181557Z 25024G30KT 12/01 A2969 RMK A01 T01220014  RH  048%=      5-min Rain = 0
KPA1 181558Z 25026G33KT 12/02 A2969 RMK A01 T01220015  RH  048%=      5-min Rain = 0
KPA1 181559Z 25026KT 12/02 A2969 RMK A01 T01230016  RH  048%=      5-min Rain = 0
KPA1 181600Z 25025G31KT 12/02 A2969 RMK A01 T01240016  RH  048%=      5-min Rain = 0
KPA1 181601Z 25023G28KT 12/02 A2969 RMK A01 T01240016  RH  048%=      5-min Rain = 0
KPA1 181602Z 24023KT 12/02 A2969 RMK A01 T01240016  RH  048%=      5-min Rain = 0
KPA1 181603Z 25019KT 12/02 A2969 RMK A01 T01240016  RH  048%=      5-min Rain = 0
KPA1 181604Z 24019KT 13/02 A2969 RMK A01 T01250017  RH  048%=      5-min Rain = 0
KPA1 181605Z 25021KT 13/02 A2969 RMK A01 T01250018  RH  048%=      5-min Rain = 0
KPA1 181606Z 24023G29KT 13/02 A2969 RMK A01 T01250017  RH  048%=      5-min Rain = 0
KPA1 181607Z 24022KT 13/02 A2969 RMK A01 T01260017  RH  047%=      5-min Rain = 0
KPA1 181608Z 25025G31KT 13/02 A2969 RMK A01 T01260017  RH  047%=      5-min Rain = 0
KPA1 181609Z 25028KT 13/02 A2969 RMK A01 T01260016  RH  047%=      5-min Rain = 0
KPA1 181610Z 25023G28KT 13/02 A2969 RMK A01 T01260016  RH  047%=      5-min Rain = 0
KPA1 181611Z 25025KT 13/02 A2969 RMK A01 T01260016  RH  047%=      5-min Rain = 0
KPA1 181612Z 24023G28KT 13/02 A2969 RMK A01 T01260016  RH  047%=      5-min Rain = 0
KPA1 181613Z 25026G35KT 13/02 A2969 RMK A01 T01260016  RH  047%=      5-min Rain = 0
KPA1 181614Z 25028G35KT 13/02 A2968 RMK A01 T01270016  RH  047%=      5-min Rain = 0
KPA1 181615Z 24027G32KT 13/02 A2968 RMK A01 T01260016  RH  047%=      5-min Rain = 0
KPA1 181616Z 24031KT 13/02 A2968 RMK A01 T01270016  RH  047%=      5-min Rain = 0
KPA1 181617Z 24027G32KT 13/02 A2968 RMK A01 T01270016  RH  047%=      5-min Rain = 0
KPA1 181618Z 25027KT 13/02 A2968 RMK A01 T01270016  RH  047%=      5-min Rain = 0
KPA1 181619Z 24025KT 13/02 A2969 RMK A01 T01280017  RH  047%=      5-min Rain = 0
KPA1 181620Z 25025G30KT 13/02 A2969 RMK A01 T01290018  RH  047%=      5-min Rain = 0
KPA1 181621Z 25027KT 13/02 A2968 RMK A01 T01310019  RH  047%=      5-min Rain = 0
KPA1 181622Z 25027KT 13/02 A2968 RMK A01 T01340021  RH  046%=      5-min Rain = 0
KPA1 181623Z 25023G28KT 14/02 A2969 RMK A01 T01360021  RH  046%=      5-min Rain = 0
KPA1 181624Z 25027G34KT 14/02 A2969 RMK A01 T01390023  RH  046%=      5-min Rain = 0
KPA1 181625Z 25031KT 14/02 A2968 RMK A01 T01400022  RH  045%=      5-min Rain = 0
KPA1 181626Z 25029G35KT 14/02 A2968 RMK A01 T01390021  RH  045%=      5-min Rain = 0
KPA1 181627Z 25026G31KT 14/02 A2968 RMK A01 T01390022  RH  045%=      5-min Rain = 0
KPA1 181628Z 25024G29KT 14/02 A2968 RMK A01 T01410024  RH  045%=      5-min Rain = 0
KPA1 181629Z 25022KT 14/02 A2969 RMK A01 T01420024  RH  045%=      5-min Rain = 0
KPA1 181630Z 25025G31KT 14/03 A2968 RMK A01 T01440025  RH  045%=      5-min Rain = 0
KPA1 181631Z 25028G35KT 14/02 A2968 RMK A01 T01440024  RH  044%=      5-min Rain = 0
KPA1 181632Z 25028KT 14/02 A2968 RMK A01 T01420022  RH  044%=      5-min Rain = 0
KPA1 181633Z 26030KT 14/02 A2968 RMK A01 T01420023  RH  045%=      5-min Rain = 0
KPA1 181634Z 25031KT 14/02 A2968 RMK A01 T01420023  RH  045%=      5-min Rain = 0
KPA1 181635Z 25026G31KT 14/02 A2968 RMK A01 T01420023  RH  045%=      5-min Rain = 0
KPA1 181636Z 25026KT 14/02 A2968 RMK A01 T01420023  RH  045%=      5-min Rain = 0
KPA1 181637Z 25024KT 14/02 A2968 RMK A01 T01390021  RH  045%=      5-min Rain = 0
KPA1 181638Z 25025KT 14/02 A2968 RMK A01 T01370021  RH  045%=      5-min Rain = 0
KPA1 181639Z 25021G30KT 14/02 A2968 RMK A01 T01360021  RH  046%=      5-min Rain = 0
KPA1 181640Z 25023KT 13/02 A2968 RMK A01 T01340020  RH  046%=      5-min Rain = 0
KPA1 181641Z 25025KT 13/02 A2968 RMK A01 T01330020  RH  046%=      5-min Rain = 0
KPA1 181642Z 25025KT 13/02 A2968 RMK A01 T01320020  RH  046%=      5-min Rain = 0
KPA1 181643Z 25026G32KT 13/02 A2968 RMK A01 T01310019  RH  047%=      5-min Rain = 0
KPA1 181644Z 25025KT 13/02 A2968 RMK A01 T01300019  RH  047%=      5-min Rain = 0
KPA1 181645Z 25026KT 13/02 A2967 RMK A01 T01290019  RH  047%=      5-min Rain = 0
KPA1 181646Z 25025KT 13/02 A2968 RMK A01 T01290020  RH  047%=      5-min Rain = 0
KPA1 181647Z 25025G31KT 13/02 A2967 RMK A01 T01290020  RH  047%=      5-min Rain = 0
KPA1 181648Z 25022KT 13/02 A2967 RMK A01 T01290020  RH  048%=      5-min Rain = 0
KPA1 181649Z 25023KT 13/02 A2967 RMK A01 T01300021  RH  048%=      5-min Rain = 0
KPA1 181650Z 25026KT 13/02 A2967 RMK A01 T01300021  RH  047%=      5-min Rain = 0
KPA1 181651Z 25024KT 13/02 A2967 RMK A01 T01310021  RH  047%=      5-min Rain = 0
KPA1 181652Z 25025KT 13/02 A2967 RMK A01 T01320022  RH  047%=      5-min Rain = 0
KPA1 181653Z 25026G31KT 13/02 A2967 RMK A01 T01330022  RH  047%=      5-min Rain = 0
KPA1 181654Z 25024KT 13/02 A2967 RMK A01 T01340022  RH  047%=      5-min Rain = 0
KPA1 181655Z 25028KT 14/02 A2967 RMK A01 T01360023  RH  046%=      5-min Rain = 0
KPA1 181656Z 25028G33KT 14/02 A2967 RMK A01 T01370022  RH  046%=      5-min Rain = 0
KPA1 181657Z 25028KT 14/02 A2967 RMK A01 T01370022  RH  046%=      5-min Rain = 0
KPA1 181658Z 25030G36KT 14/02 A2966 RMK A01 T01380023  RH  046%=      5-min Rain = 0
KPA1 181659Z 25031G36KT 14/03 A2967 RMK A01 T01400025  RH  046%=      5-min Rain = 0
KPA1 181700Z 25031KT 14/02 A2966 RMK A01 T01420024  RH  045%=      5-min Rain = 0
KPA1 181701Z 25030KT 14/02 A2966 RMK A01 T01420023  RH  045%=      5-min Rain = 0
KPA1 181702Z 25028KT 14/02 A2967 RMK A01 T01410024  RH  045%=      5-min Rain = 0
KPA1 181703Z 25024G29KT 14/02 A2967 RMK A01 T01410023  RH  045%=      5-min Rain = 0
KPA1 181704Z 25025KT 14/02 A2967 RMK A01 T01410024  RH  045%=      5-min Rain = 0
KPA1 181705Z 25025G30KT 14/02 A2967 RMK A01 T01410023  RH  045%=      5-min Rain = 0
KPA1 181706Z 25030G35KT 14/02 A2966 RMK A01 T01400023  RH  045%=      5-min Rain = 0
KPA1 181707Z 25029G34KT 14/02 A2966 RMK A01 T01400023  RH  045%=      5-min Rain = 0
KPA1 181708Z 26026KT 14/02 A2967 RMK A01 T01400024  RH  046%=      5-min Rain = 0
KPA1 181709Z 25029G34KT 14/02 A2966 RMK A01 T01400024  RH  045%=      5-min Rain = 0
KPA1 181710Z 25030KT 14/02 A2966 RMK A01 T01410024  RH  045%=      5-min Rain = 0
KPA1 181711Z 25030KT 14/02 A2966 RMK A01 T01410024  RH  045%=      5-min Rain = 0
KPA1 181712Z 25028G38KT 14/03 A2966 RMK A01 T01410025  RH  045%=      5-min Rain = 0
KPA1 181713Z 25031KT 14/03 A2966 RMK A01 T01420025  RH  045%=      5-min Rain = 0
KPA1 181714Z 25031G37KT 14/03 A2966 RMK A01 T01420025  RH  045%=      5-min Rain = 0
KPA1 181715Z 25029KT 14/03 A2966 RMK A01 T01410025  RH  045%=      5-min Rain = 0
KPA1 181716Z 25026G32KT 14/03 A2966 RMK A01 T01410025  RH  045%=      5-min Rain = 0
KPA1 181717Z 25029G34KT 14/03 A2966 RMK A01 T01410025  RH  045%=      5-min Rain = 0
KPA1 181718Z 25032KT 14/02 A2966 RMK A01 T01390024  RH  046%=      5-min Rain = 0
KPA1 181719Z 25030KT 14/02 A2966 RMK A01 T01370023  RH  046%=      5-min Rain = 0
KPA1 181720Z 26028G33KT 14/02 A2966 RMK A01 T01360024  RH  047%=      5-min Rain = 0
KPA1 181721Z 26025KT 14/03 A2966 RMK A01 T01360025  RH  047%=      5-min Rain = 0
KPA1 181722Z 25025KT 14/03 A2966 RMK A01 T01350025  RH  047%=      5-min Rain = 0
KPA1 181723Z 26021G28KT 14/03 A2966 RMK A01 T01350025  RH  047%=      5-min Rain = 0
KPA1 181724Z 26022KT 14/03 A2966 RMK A01 T01350025  RH  047%=      5-min Rain = 0
KPA1 181725Z 25029KT 13/03 A2966 RMK A01 T01340025  RH  047%=      5-min Rain = 0
KPA1 181726Z 26027G33KT 13/02 A2966 RMK A01 T01340024  RH  047%=      5-min Rain = 0
KPA1 181727Z 26024KT 13/02 A2966 RMK A01 T01330024  RH  048%=      5-min Rain = 0
KPA1 181728Z 26025G31KT 13/03 A2966 RMK A01 T01330025  RH  048%=      5-min Rain = 0
KPA1 181729Z 25028G34KT 13/02 A2965 RMK A01 T01330024  RH  048%=      5-min Rain = 0
KPA1 181730Z 26025G30KT 13/02 A2966 RMK A01 T01330024  RH  048%=      5-min Rain = 0
KPA1 181731Z 26027G32KT 13/02 A2966 RMK A01 T01330024  RH  048%=      5-min Rain = 0
KPA1 181732Z 25025KT 13/02 A2966 RMK A01 T01330024  RH  048%=      5-min Rain = 0
KPA1 181733Z 25024KT 13/03 A2966 RMK A01 T01330025  RH  048%=      5-min Rain = 0
KPA1 181734Z 26020KT 13/03 A2966 RMK A01 T01340025  RH  048%=      5-min Rain = 0
KPA1 181735Z 27018KT 14/03 A2966 RMK A01 T01350026  RH  048%=      5-min Rain = 0
KPA1 181736Z 25019G30KT 14/03 A2965 RMK A01 T01360027  RH  047%=      5-min Rain = 0
KPA1 181737Z 25024G33KT 14/03 A2964 RMK A01 T01380028  RH  047%=      5-min Rain = 0
KPA1 181738Z 25030KT 14/03 A2964 RMK A01 T01410028  RH  046%=      5-min Rain = 0
KPA1 181739Z 25026KT 14/03 A2964 RMK A01 T01420027  RH  046%=      5-min Rain = 0
KPA1 181740Z 25029KT 14/03 A2964 RMK A01 T01420027  RH  046%=      5-min Rain = 0
KPA1 181741Z 25026KT 14/03 A2964 RMK A01 T01410026  RH  046%=      5-min Rain = 0
KPA1 181742Z 25025G30KT 14/03 A2964 RMK A01 T01420027  RH  046%=      5-min Rain = 0
KPA1 181743Z 26027G32KT 14/03 A2964 RMK A01 T01430027  RH  046%=      5-min Rain = 0
KPA1 181744Z 26027KT 15/03 A2964 RMK A01 T01450028  RH  045%=      5-min Rain = 0
KPA1 181745Z 26025KT 15/03 A2964 RMK A01 T01460027  RH  045%=      5-min Rain = 0
KPA1 181746Z 25023KT 15/03 A2965 RMK A01 T01500032  RH  045%=      5-min Rain = 0
KPA1 181747Z 25026G32KT 15/03 A2964 RMK A01 T01540032  RH  044%=      5-min Rain = 0
KPA1 181748Z 25027KT 16/03 A2964 RMK A01 T01550031  RH  043%=      5-min Rain = 0
KPA1 181749Z 25027G32KT 16/03 A2964 RMK A01 T01560030  RH  043%=      5-min Rain = 0
KPA1 181750Z 25029G34KT 16/03 A2964 RMK A01 T01560028  RH  042%=      5-min Rain = 0
KPA1 181751Z 26026G31KT 16/03 A2964 RMK A01 T01560029  RH  042%=      5-min Rain = 0
KPA1 181752Z 25026G32KT 16/03 A2964 RMK A01 T01580029  RH  042%=      5-min Rain = 0
KPA1 181753Z 25028G34KT 16/03 A2964 RMK A01 T01570027  RH  042%=      5-min Rain = 0
KPA1 181754Z 25026G32KT 15/03 A2964 RMK A01 T01540026  RH  042%=      5-min Rain = 0
KPA1 181755Z 25026KT 15/03 A2964 RMK A01 T01530027  RH  043%=      5-min Rain = 0
KPA1 181756Z 25023KT 15/03 A2964 RMK A01 T01530027  RH  043%=      5-min Rain = 0
KPA1 181757Z 26022G28KT 15/03 A2964 RMK A01 T01540029  RH  043%=      5-min Rain = 0
KPA1 181758Z 25024KT 16/03 A2964 RMK A01 T01580032  RH  043%=      5-min Rain = 0
KPA1 181759Z 25022G27KT 16/03 A2964 RMK A01 T01610033  RH  042%=      5-min Rain = 0
KPA1 181800Z 26023KT 16/03 A2964 RMK A01 T01630032  RH  041%=      5-min Rain = 0
KPA1 181801Z 25023G28KT 16/03 A2964 RMK A01 T01640031  RH  041%=      5-min Rain = 0
KPA1 181802Z 25026G31KT 17/03 A2964 RMK A01 T01660031  RH  040%=      5-min Rain = 0
KPA1 181803Z 25026KT 17/03 A2964 RMK A01 T01660029  RH  040%=      5-min Rain = 0
KPA1 181804Z 25025KT 17/03 A2964 RMK A01 T01660029  RH  040%=      5-min Rain = 0
KPA1 181805Z 24028KT 17/03 A2963 RMK A01 T01670029  RH  040%=      5-min Rain = 0
KPA1 181806Z 25029KT 17/03 A2963 RMK A01 T01680028  RH  039%=      5-min Rain = 0
KPA1 181807Z 25029KT 17/03 A2963 RMK A01 T01680027  RH  039%=      5-min Rain = 0
KPA1 181808Z 25028KT 17/03 A2963 RMK A01 T01670027  RH  039%=      5-min Rain = 0
KPA1 181809Z 25022G27KT 17/03 A2963 RMK A01 T01670027  RH  039%=      5-min Rain = 0
KPA1 181810Z 25025G30KT 17/03 A2963 RMK A01 T01720031  RH  039%=      5-min Rain = 0
KPA1 181811Z 25026KT 17/03 A2963 RMK A01 T01740029  RH  038%=      5-min Rain = 0
KPA1 181812Z 26022KT 18/03 A2963 RMK A01 T01750029  RH  038%=      5-min Rain = 0
KPA1 181813Z 25026KT 18/03 A2963 RMK A01 T01780027  RH  036%=      5-min Rain = 0
KPA1 181814Z 25025G30KT 18/03 A2963 RMK A01 T01760025  RH  036%=      5-min Rain = 0
KPA1 181815Z 25028KT 18/02 A2962 RMK A01 T01760024  RH  036%=      5-min Rain = 0
KPA1 181816Z 25029G34KT 18/02 A2962 RMK A01 T01760022  RH  035%=      5-min Rain = 0
KPA1 181817Z 25027G34KT 18/02 A2962 RMK A01 T01760021  RH  035%=      5-min Rain = 0
KPA1 181818Z 26024KT 18/02 A2963 RMK A01 T01750022  RH  036%=      5-min Rain = 0
KPA1 181819Z 26021G26KT 18/02 A2963 RMK A01 T01760023  RH  036%=      5-min Rain = 0
KPA1 181820Z 25025G30KT 18/02 A2962 RMK A01 T01760021  RH  035%=      5-min Rain = 0
KPA1 181821Z 25023KT 17/02 A2962 RMK A01 T01740019  RH  035%=      5-min Rain = 0
KPA1 181822Z 25024KT 17/02 A2962 RMK A01 T01740021  RH  036%=      5-min Rain = 0
KPA1 181823Z 26024KT 17/02 A2962 RMK A01 T01740019  RH  035%=      5-min Rain = 0
KPA1 181824Z 26025G31KT 17/02 A2962 RMK A01 T01740020  RH  035%=      5-min Rain = 0
KPA1 181825Z 26024KT 17/02 A2962 RMK A01 T01740017  RH  035%=      5-min Rain = 0
KPA1 181826Z 25027KT 17/02 A2962 RMK A01 T01740015  RH  034%=      5-min Rain = 0
KPA1 181827Z 26026KT 17/01 A2962 RMK A01 T01740014  RH  034%=      5-min Rain = 0
KPA1 181828Z 25025KT 17/01 A2962 RMK A01 T01740012  RH  034%=      5-min Rain = 0
KPA1 181829Z 26023KT 17/01 A2962 RMK A01 T01740013  RH  034%=      5-min Rain = 0
KPA1 181830Z 26024G32KT 18/01 A2962 RMK A01 T01750014  RH  034%=      5-min Rain = 0
KPA1 181831Z 26028G34KT 18/01 A2962 RMK A01 T01760011  RH  033%=      5-min Rain = 0
KPA1 181832Z 26026KT 18/01 A2962 RMK A01 T01760010  RH  033%=      5-min Rain = 0
KPA1 181833Z 26027KT 18/01 A2962 RMK A01 T01750010  RH  033%=      5-min Rain = 0
KPA1 181834Z 26026KT 18/01 A2962 RMK A01 T01750007  RH  032%=      5-min Rain = 0
KPA1 181835Z 27027G32KT 18/01 A2962 RMK A01 T01750005  RH  032%=      5-min Rain = 0
KPA1 181836Z 27026KT 18/00 A2962 RMK A01 T01750003  RH  031%=      5-min Rain = 0
KPA1 181837Z 27023G28KT 17/00 A2962 RMK A01 T01740003  RH  031%=      5-min Rain = 0
KPA1 181838Z 27024G31KT 17/00 A2962 RMK A01 T01740003  RH  031%=      5-min Rain = 0
KPA1 181839Z 28024KT 17/00 A2962 RMK A01 T01740002  RH  031%=      5-min Rain = 0
KPA1 181840Z 28024KT 17/M00 A2961 RMK A01 T01731001  RH  031%=      5-min Rain = 0
KPA1 181841Z 27021KT 17/00 A2962 RMK A01 T01720001  RH  031%=      5-min Rain = 0
KPA1 181842Z 27021KT 17/00 A2962 RMK A01 T01720004  RH  032%=      5-min Rain = 0
KPA1 181843Z 27023G30KT 17/01 A2961 RMK A01 T01740005  RH  032%=      5-min Rain = 0
KPA1 181844Z 28023KT 17/01 A2962 RMK A01 T01730005  RH  032%=      5-min Rain = 0
KPA1 181845Z 28024G30KT 17/00 A2961 RMK A01 T01730004  RH  032%=      5-min Rain = 0
KPA1 181846Z 27024G29KT 17/00 A2961 RMK A01 T01710002  RH  032%=      5-min Rain = 0
KPA1 181847Z 27023KT 17/00 A2961 RMK A01 T01700003  RH  032%=      5-min Rain = 0
KPA1 181848Z 27024KT 17/00 A2961 RMK A01 T01690001  RH  032%=      5-min Rain = 0
KPA1 181849Z 27025KT 17/M00 A2961 RMK A01 T01681001  RH  032%=      5-min Rain = 0
KPA1 181850Z 27025G30KT 17/M00 A2962 RMK A01 T01671001  RH  032%=      5-min Rain = 0
KPA1 181851Z 28022KT 17/00 A2962 RMK A01 T01660000  RH  032%=      5-min Rain = 0
KPA1 181852Z 27019KT 17/00 A2962 RMK A01 T01660001  RH  033%=      5-min Rain = 0
KPA1 181853Z 28016G22KT 17/00 A2962 RMK A01 T01660003  RH  033%=      5-min Rain = 0
KPA1 181854Z 27018KT 17/00 A2961 RMK A01 T01680003  RH  033%=      5-min Rain = 0
KPA1 181855Z 28017KT 17/00 A2961 RMK A01 T01690003  RH  033%=      5-min Rain = 0
KPA1 181856Z 28020KT 17/01 A2961 RMK A01 T01720005  RH  032%=      5-min Rain = 0
KPA1 181857Z 27020G25KT 17/00 A2961 RMK A01 T01730004  RH  032%=      5-min Rain = 0
KPA1 181858Z 28020KT 17/00 A2961 RMK A01 T01720003  RH  032%=      5-min Rain = 0
KPA1 181859Z 28021G26KT 17/01 A2961 RMK A01 T01740005  RH  032%=      5-min Rain = 0
KPA1 181900Z 27019G24KT 18/01 A2961 RMK A01 T01790006  RH  031%=      5-min Rain = 0
KPA1 181901Z 27019G26KT 18/01 A2961 RMK A01 T01830010  RH  031%=      5-min Rain = 0
KPA1 181902Z 27023KT 19/01 A296 RMK A01 T01880010  RH  030%=      5-min Rain = 0
KPA1 181903Z 26026KT 19/00 A296 RMK A01 T01890002  RH  029%=      5-min Rain = 0
KPA1 181904Z 26031G37KT 19/M00 A296 RMK A01 T01871002  RH  028%=      5-min Rain = 0
KPA1 181905Z 27027KT 19/M00 A296 RMK A01 T01861002  RH  028%=      5-min Rain = 0
KPA1 181906Z 27025G30KT 19/00 A296 RMK A01 T01850000  RH  029%=      5-min Rain = 0
KPA1 181907Z 27026KT 19/M00 A296 RMK A01 T01851001  RH  029%=      5-min Rain = 0
KPA1 181908Z 27022KT 18/M00 A296 RMK A01 T01821002  RH  029%=      5-min Rain = 0
KPA1 181909Z 27025G30KT 18/00 A296 RMK A01 T01830002  RH  030%=      5-min Rain = 0
KPA1 181910Z 27024KT 18/00 A296 RMK A01 T018300-0  RH  029%=      5-min Rain = 0
KPA1 181911Z 27023KT 18/M00 A296 RMK A01 T01791002  RH  029%=      5-min Rain = 0
KPA1 181912Z 27020G25KT 18/M00 A296 RMK A01 T01761002  RH  030%=      5-min Rain = 0
KPA1 181913Z 29021KT 18/00 A296 RMK A01 T017500-0  RH  030%=      5-min Rain = 0
KPA1 181914Z 28020KT 18/00 A296 RMK A01 T01760001  RH  031%=      5-min Rain = 0
KPA1 181915Z 29020G25KT 18/01 A296 RMK A01 T01810006  RH  031%=      5-min Rain = 0
KPA1 181916Z 29021KT 18/00 A296 RMK A01 T01830003  RH  030%=      5-min Rain = 0
KPA1 181917Z 29023KT 18/00 A296 RMK A01 T01840004  RH  030%=      5-min Rain = 0
KPA1 181918Z 29022KT 18/00 A2959 RMK A01 T01820002  RH  030%=      5-min Rain = 0
KPA1 181919Z 29021KT 18/00 A2959 RMK A01 T01820003  RH  030%=      5-min Rain = 0
KPA1 181920Z 29021KT 18/00 A2959 RMK A01 T01810004  RH  030%=      5-min Rain = 0
KPA1 181921Z 28019KT 18/00 A296 RMK A01 T01820004  RH  030%=      5-min Rain = 0
KPA1 181922Z 26020G26KT 19/00 A296 RMK A01 T01860004  RH  029%=      5-min Rain = 0
KPA1 181923Z 26020KT 19/00 A2959 RMK A01 T01880001  RH  028%=      5-min Rain = 0
KPA1 181924Z 27020KT 19/00 A2959 RMK A01 T01890001  RH  028%=      5-min Rain = 0
KPA1 181925Z 27021KT 19/00 A2959 RMK A01 T01890000  RH  028%=      5-min Rain = 0
KPA1 181926Z 28023G28KT 18/M01 A2959 RMK A01 T01831007  RH  028%=      5-min Rain = 0
KPA1 181927Z 28023KT 18/M01 A2959 RMK A01 T01771011  RH  028%=      5-min Rain = 0
KPA1 181928Z 28024KT 17/M01 A2959 RMK A01 T01731010  RH  029%=      5-min Rain = 0
KPA1 181929Z 28024KT 17/M01 A2959 RMK A01 T01721009  RH  029%=      5-min Rain = 0
KPA1 181930Z 28020KT 17/M01 A2959 RMK A01 T01701009  RH  029%=      5-min Rain = 0
KPA1 181931Z 29023G28KT 17/M01 A2959 RMK A01 T01701009  RH  030%=      5-min Rain = 0
KPA1 181932Z 28022KT 17/M01 A2959 RMK A01 T01691007  RH  030%=      5-min Rain = 0
KPA1 181933Z 28021KT 17/M01 A2959 RMK A01 T01691007  RH  030%=      5-min Rain = 0
KPA1 181934Z 28022G30KT 17/M01 A2959 RMK A01 T01691005  RH  031%=      5-min Rain = 0
KPA1 181935Z 28024G29KT 17/M01 A2959 RMK A01 T01691005  RH  031%=      5-min Rain = 0
KPA1 181936Z 28024KT 17/M01 A2959 RMK A01 T01681006  RH  031%=      5-min Rain = 0
KPA1 181937Z 27023KT 17/M01 A2959 RMK A01 T01671007  RH  031%=      5-min Rain = 0
KPA1 181938Z 27025KT 17/M01 A2959 RMK A01 T01661008  RH  030%=      5-min Rain = 0
KPA1 181939Z 27022KT 17/M01 A2959 RMK A01 T01651009  RH  030%=      5-min Rain = 0
KPA1 181940Z 28022KT 17/M01 A2959 RMK A01 T01651009  RH  031%=      5-min Rain = 0
KPA1 181941Z 28021G27KT 17/M01 A2959 RMK A01 T01651009  RH  031%=      5-min Rain = 0
KPA1 181942Z 28023KT 17/M01 A2959 RMK A01 T01651009  RH  031%=      5-min Rain = 0
KPA1 181943Z 28023KT 16/M01 A2959 RMK A01 T01641009  RH  031%=      5-min Rain = 0
KPA1 181944Z 28022G27KT 16/M01 A2959 RMK A01 T01641009  RH  031%=      5-min Rain = 0
KPA1 181945Z 28019G26KT 17/M01 A2959 RMK A01 T01651008  RH  031%=      5-min Rain = 0
KPA1 181946Z 28020G26KT 17/M01 A2959 RMK A01 T01671008  RH  030%=      5-min Rain = 0
KPA1 181947Z 28022KT 17/M01 A2959 RMK A01 T01671008  RH  030%=      5-min Rain = 0
KPA1 181948Z 27020G26KT 17/M01 A2959 RMK A01 T01671007  RH  030%=      5-min Rain = 0
KPA1 181949Z 27022KT 17/M01 A2959 RMK A01 T01671007  RH  031%=      5-min Rain = 0
KPA1 181950Z 28022G27KT 17/M01 A2959 RMK A01 T01671007  RH  030%=      5-min Rain = 0
KPA1 181951Z 27020KT 17/M01 A2959 RMK A01 T01671007  RH  030%=      5-min Rain = 0
KPA1 181952Z 27022KT 17/M01 A2959 RMK A01 T01681007  RH  030%=      5-min Rain = 0
KPA1 181953Z 27020G26KT 17/M01 A2959 RMK A01 T01691006  RH  030%=      5-min Rain = 0
KPA1 181954Z 27020G25KT 17/M01 A2959 RMK A01 T01701007  RH  030%=      5-min Rain = 0
KPA1 181955Z 27020KT 17/M01 A2959 RMK A01 T01701010  RH  029%=      5-min Rain = 0
KPA1 181956Z 28021KT 17/M01 A2959 RMK A01 T01691010  RH  030%=      5-min Rain = 0
KPA1 181957Z 28019KT 17/M01 A2959 RMK A01 T01691011  RH  029%=      5-min Rain = 0
KPA1 181958Z 28017KT 17/M01 A2959 RMK A01 T01701010  RH  030%=      5-min Rain = 0
KPA1 181959Z 28021G27KT 17/M01 A2958 RMK A01 T01721009  RH  029%=      5-min Rain = 0
KPA1 182000Z 27017KT 17/M01 A2959 RMK A01 T01721012  RH  028%=      5-min Rain = 0
KPA1 182001Z 27021KT 17/M02 A2958 RMK A01 T01741017  RH  027%=      5-min Rain = 0
KPA1 182002Z 27020KT 17/M02 A2958 RMK A01 T01731021  RH  027%=      5-min Rain = 0
KPA1 182003Z 27022KT 17/M03 A2958 RMK A01 T01711025  RH  026%=      5-min Rain = 0
KPA1 182004Z 28021KT 17/M03 A2958 RMK A01 T01701027  RH  026%=      5-min Rain = 0
KPA1 182005Z 28023KT 17/M03 A2958 RMK A01 T01691031  RH  025%=      5-min Rain = 0
KPA1 182006Z 27019G24KT 17/M03 A2958 RMK A01 T01671031  RH  026%=      5-min Rain = 0
KPA1 182007Z 28018G24KT 17/M03 A2958 RMK A01 T01671030  RH  026%=      5-min Rain = 0
KPA1 182008Z 28020G27KT 17/M03 A2958 RMK A01 T01671031  RH  026%=      5-min Rain = 0
KPA1 182009Z 27024G29KT 17/M03 A2958 RMK A01 T01681031  RH  025%=      5-min Rain = 0
KPA1 182010Z 27021KT 17/M03 A2958 RMK A01 T01681029  RH  026%=      5-min Rain = 0
KPA1 182011Z 27019KT 17/M03 A2958 RMK A01 T01671026  RH  026%=      5-min Rain = 0
KPA1 182012Z 27020G26KT 17/M03 A2958 RMK A01 T01671025  RH  027%=      5-min Rain = 0
KPA1 182013Z 28022KT 17/M03 A2958 RMK A01 T01681030  RH  026%=      5-min Rain = 0
KPA1 182014Z 28020KT 17/M03 A2958 RMK A01 T01681034  RH  025%=      5-min Rain = 0
KPA1 182015Z 28020KT 17/M03 A2958 RMK A01 T01681034  RH  025%=      5-min Rain = 0
KPA1 182016Z 28021KT 17/M03 A2958 RMK A01 T01681033  RH  025%=      5-min Rain = 0
KPA1 182017Z 28022KT 17/M03 A2958 RMK A01 T01671033  RH  025%=      5-min Rain = 0
KPA1 182018Z 28022KT 17/M03 A2958 RMK A01 T01671033  RH  025%=      5-min Rain = 0
KPA1 182019Z 28020KT 17/M03 A2958 RMK A01 T01671033  RH  025%=      5-min Rain = 0
KPA1 182020Z 28020KT 17/M03 A2959 RMK A01 T01671032  RH  025%=      5-min Rain = 0
KPA1 182021Z 29019G24KT 17/M03 A2959 RMK A01 T01681032  RH  025%=      5-min Rain = 0
KPA1 182022Z 29019KT 17/M03 A2959 RMK A01 T01681033  RH  025%=      5-min Rain = 0
KPA1 182023Z 29020KT 17/M03 A2959 RMK A01 T01681034  RH  025%=      5-min Rain = 0
KPA1 182024Z 29019G25KT 17/M03 A2959 RMK A01 T01701030  RH  025%=      5-min Rain = 0
KPA1 182025Z 29020KT 17/M03 A2958 RMK A01 T01741029  RH  025%=      5-min Rain = 0
KPA1 182026Z 28020KT 18/M03 A2958 RMK A01 T01761029  RH  025%=      5-min Rain = 0
KPA1 182027Z 28021KT 18/M03 A2958 RMK A01 T01761029  RH  025%=      5-min Rain = 0
KPA1 182028Z 28020G25KT 18/M03 A2958 RMK A01 T01791027  RH  024%=      5-min Rain = 0
KPA1 182029Z 28017KT 18/M03 A2958 RMK A01 T01801029  RH  024%=      5-min Rain = 0
KPA1 182030Z 28017KT 18/M03 A2958 RMK A01 T01801029  RH  024%=      5-min Rain = 0
KPA1 182031Z 28018KT 18/M03 A2958 RMK A01 T01801029  RH  024%=      5-min Rain = 0
KPA1 182032Z 28019KT 18/M03 A2958 RMK A01 T01801029  RH  024%=      5-min Rain = 0
KPA1 182033Z 29019KT 18/M03 A2958 RMK A01 T01801029  RH  024%=      5-min Rain = 0
KPA1 182034Z 28017G22KT 18/M03 A2958 RMK A01 T01811030  RH  024%=      5-min Rain = 0
KPA1 182035Z 28018KT 18/M03 A2958 RMK A01 T01811030  RH  024%=      5-min Rain = 0
KPA1 182036Z 29015KT 18/M03 A2958 RMK A01 T01831028  RH  024%=      5-min Rain = 0
KPA1 182037Z 29015KT 19/M03 A2958 RMK A01 T01851026  RH  024%=      5-min Rain = 0
KPA1 182038Z 28020KT 19/M03 A2957 RMK A01 T01851025  RH  024%=      5-min Rain = 0
KPA1 182039Z 29019KT 18/M02 A2958 RMK A01 T01831024  RH  024%=      5-min Rain = 0
KPA1 182040Z 29017KT 18/M02 A2957 RMK A01 T01801024  RH  025%=      5-min Rain = 0
KPA1 182041Z 28017KT 18/M02 A2957 RMK A01 T01801022  RH  025%=      5-min Rain = 0
KPA1 182042Z 27021G26KT 18/M02 A2957 RMK A01 T01811020  RH  025%=      5-min Rain = 0
KPA1 182043Z 27018KT 18/M02 A2957 RMK A01 T01821021  RH  025%=      5-min Rain = 0
KPA1 182044Z 28018G23KT 18/M02 A2957 RMK A01 T01811021  RH  025%=      5-min Rain = 0
KPA1 182045Z 27019G24KT 18/M02 A2957 RMK A01 T01821019  RH  025%=      5-min Rain = 0
KPA1 182046Z 28022KT 18/M02 A2957 RMK A01 T01841019  RH  025%=      5-min Rain = 0
KPA1 182047Z 29019KT 18/M02 A2958 RMK A01 T01831018  RH  025%=      5-min Rain = 0
KPA1 182048Z 29018KT 18/M02 A2958 RMK A01 T01831018  RH  025%=      5-min Rain = 0
KPA1 182049Z 28017KT 18/M02 A2958 RMK A01 T01821019  RH  025%=      5-min Rain = 0
KPA1 182050Z 29018KT 18/M02 A2958 RMK A01 T01811020  RH  026%=      5-min Rain = 0
KPA1 182051Z 29020KT 18/M02 A2958 RMK A01 T01811019  RH  026%=      5-min Rain = 0
KPA1 182052Z 29019KT 18/M02 A2958 RMK A01 T01801021  RH  025%=      5-min Rain = 0
KPA1 182053Z 29016KT 18/M02 A2958 RMK A01 T01791022  RH  025%=      5-min Rain = 0
KPA1 182054Z 30016KT 18/M02 A2958 RMK A01 T01781021  RH  026%=      5-min Rain = 0
KPA1 182055Z 29015KT 18/M02 A2958 RMK A01 T01791020  RH  026%=      5-min Rain = 0
KPA1 182056Z 28013KT 18/M02 A2958 RMK A01 T01811020  RH  025%=      5-min Rain = 0
KPA1 182057Z 28013KT 18/M02 A2958 RMK A01 T01811020  RH  025%=      5-min Rain = 0
KPA1 182058Z 27014KT 18/M02 A2958 RMK A01 T01821021  RH  025%=      5-min Rain = 0
KPA1 182059Z 27016KT 18/M02 A2958 RMK A01 T01841019  RH  025%=      5-min Rain = 0
KPA1 182100Z 27016G21KT 18/M02 A2958 RMK A01 T01841020  RH  025%=      5-min Rain = 0
KPA1 182101Z 27019KT 18/M02 A2958 RMK A01 T01831020  RH  025%=      5-min Rain = 0
KPA1 182102Z 26019G24KT 18/M02 A2958 RMK A01 T01811021  RH  025%=      5-min Rain = 0
KPA1 182103Z 27016KT 18/M02 A2958 RMK A01 T01801022  RH  025%=      5-min Rain = 0
KPA1 182104Z 27014KT 18/M02 A2958 RMK A01 T01771023  RH  025%=      5-min Rain = 0
KPA1 182105Z 27015KT 18/M02 A2958 RMK A01 T01751023  RH  026%=      5-min Rain = 0
KPA1 182106Z 26014KT 18/M02 A2958 RMK A01 T01751022  RH  026%=      5-min Rain = 0
KPA1 182107Z 27014KT 17/M02 A2957 RMK A01 T01741021  RH  026%=      5-min Rain = 0
KPA1 182108Z 27014G19KT 17/M02 A2958 RMK A01 T01741022  RH  026%=      5-min Rain = 0
KPA1 182109Z 27015KT 17/M02 A2958 RMK A01 T01731024  RH  026%=      5-min Rain = 0
KPA1 182110Z 27015KT 17/M02 A2957 RMK A01 T01711024  RH  026%=      5-min Rain = 0
KPA1 182111Z 27015KT 17/M02 A2957 RMK A01 T01701024  RH  026%=      5-min Rain = 0
KPA1 182112Z 26015KT 17/M02 A2957 RMK A01 T01701024  RH  027%=      5-min Rain = 0
KPA1 182113Z 27014KT 17/M03 A2958 RMK A01 T01701025  RH  026%=      5-min Rain = 0
KPA1 182114Z 27014KT 17/M02 A2958 RMK A01 T01701024  RH  027%=      5-min Rain = 0
KPA1 182115Z 29019KT 17/M02 A2958 RMK A01 T01701022  RH  027%=      5-min Rain = 0
KPA1 182116Z 30014KT 17/M02 A2958 RMK A01 T01711020  RH  027%=      5-min Rain = 0
KPA1 182117Z 31012KT 17/M02 A2958 RMK A01 T01701016  RH  028%=      5-min Rain = 0
KPA1 182118Z 32016KT 17/M02 A2958 RMK A01 T01691015  RH  028%=      5-min Rain = 0
KPA1 182119Z 32015KT 17/M02 A2958 RMK A01 T01681015  RH  029%=      5-min Rain = 0
KPA1 182120Z 32012KT 17/M02 A2958 RMK A01 T01671015  RH  029%=      5-min Rain = 0
KPA1 182121Z 32013KT 17/M01 A2958 RMK A01 T01671014  RH  029%=      5-min Rain = 0
KPA1 182122Z 32013KT 17/M01 A2958 RMK A01 T01661014  RH  029%=      5-min Rain = 0
KPA1 182123Z 31014KT 17/M01 A2958 RMK A01 T01661012  RH  030%=      5-min Rain = 0
KPA1 182124Z 32015KT 17/M01 A2958 RMK A01 T01661010  RH  030%=      5-min Rain = 0
KPA1 182125Z 32020KT 17/M01 A2958 RMK A01 T01651010  RH  030%=      5-min Rain = 0
KPA1 182126Z 33017KT 16/M01 A2958 RMK A01 T01631011  RH  030%=      5-min Rain = 0
KPA1 182127Z 32016KT 16/M01 A2958 RMK A01 T01631011  RH  031%=      5-min Rain = 0
KPA1 182128Z 33014KT 16/M01 A2958 RMK A01 T01621011  RH  031%=      5-min Rain = 0
KPA1 182129Z 33014KT 16/M01 A2958 RMK A01 T01621011  RH  031%=      5-min Rain = 0
KPA1 182130Z 33016KT 16/M01 A2958 RMK A01 T01611010  RH  031%=      5-min Rain = 0
KPA1 182131Z 32016KT 16/M01 A2958 RMK A01 T01611010  RH  031%=      5-min Rain = 0
KPA1 182132Z 32015KT 16/M01 A2958 RMK A01 T01611010  RH  031%=      5-min Rain = 0
KPA1 182133Z 32013KT 16/M01 A2958 RMK A01 T01621009  RH  031%=      5-min Rain = 0
KPA1 182134Z 32016KT 16/M01 A2958 RMK A01 T01631009  RH  031%=      5-min Rain = 0
KPA1 182135Z 32015KT 16/M01 A2958 RMK A01 T01631009  RH  031%=      5-min Rain = 0
KPA1 182136Z 33014KT 16/M01 A2958 RMK A01 T01631009  RH  031%=      5-min Rain = 0
KPA1 182137Z 32014KT 16/M01 A2958 RMK A01 T01631008  RH  031%=      5-min Rain = 0
KPA1 182138Z 33013KT 16/M01 A2958 RMK A01 T01631008  RH  031%=      5-min Rain = 0
KPA1 182139Z 32014KT 16/M01 A2958 RMK A01 T01621007  RH  031%=      5-min Rain = 0
KPA1 182140Z 32015KT 16/M01 A2958 RMK A01 T01631007  RH  031%=      5-min Rain = 0
KPA1 182141Z 32012KT 16/M01 A2959 RMK A01 T01621008  RH  031%=      5-min Rain = 0
KPA1 182142Z 32013KT 16/M01 A2959 RMK A01 T01611008  RH  031%=      5-min Rain = 0
KPA1 182143Z 33013KT 16/M01 A2959 RMK A01 T01611007  RH  032%=      5-min Rain = 0
KPA1 182144Z 32015KT 16/M01 A2959 RMK A01 T01611008  RH  032%=      5-min Rain = 0
KPA1 182145Z 32013G18KT 16/M01 A2959 RMK A01 T01611009  RH  031%=      5-min Rain = 0
KPA1 182146Z 33012G17KT 16/M01 A2959 RMK A01 T01611007  RH  032%=      5-min Rain = 0
KPA1 182147Z 33015KT 16/M01 A2959 RMK A01 T01601008  RH  032%=      5-min Rain = 0
KPA1 182148Z 33013KT 16/M01 A2959 RMK A01 T01591009  RH  032%=      5-min Rain = 0
KPA1 182149Z 33011KT 16/M01 A2959 RMK A01 T01591008  RH  032%=      5-min Rain = 0
KPA1 182150Z 32010KT 16/M01 A2959 RMK A01 T01591007  RH  032%=      5-min Rain = 0
KPA1 182151Z 32010KT 16/M01 A2959 RMK A01 T01591007  RH  032%=      5-min Rain = 0
KPA1 182152Z 32012KT 16/M01 A2959 RMK A01 T01591008  RH  032%=      5-min Rain = 0
KPA1 182153Z 32012KT 16/M01 A2959 RMK A01 T01591007  RH  032%=      5-min Rain = 0
KPA1 182154Z 32012KT 16/M01 A296 RMK A01 T01591007  RH  032%=      5-min Rain = 0
KPA1 182155Z 32012KT 16/M01 A296 RMK A01 T01591006  RH  032%=      5-min Rain = 0
KPA1 182156Z 32013KT 16/M01 A296 RMK A01 T01591006  RH  032%=      5-min Rain = 0
KPA1 182157Z 33011KT 16/M01 A296 RMK A01 T01591007  RH  032%=      5-min Rain = 0
KPA1 182158Z 32014KT 16/M01 A296 RMK A01 T01591007  RH  032%=      5-min Rain = 0
KPA1 182159Z 32020G34KT 16/M01 A296 RMK A01 T01591006  RH  032%=      5-min Rain = 0
KPA1 182200Z 34027G33KT 15/M01 A2961 RMK A01 T01501007  RH  034%=      5-min Rain = 0
KPA1 182201Z 36020KT 14/M01 A2962 RMK A01 T01351007  RH  037%=      5-min Rain = 0
KPA1 182202Z 35023G29KT 13/M01 A2962 RMK A01 T01261006  RH  040%=      5-min Rain = 0
KPA1 182203Z 36024G29KT 12/M01 A2962 RMK A01 T01191005  RH  042%=      5-min Rain = 0
KPA1 182204Z 36023G29KT 12/M00 A2962 RMK A01 T01161004  RH  044%=      5-min Rain = 0
KPA1 182205Z 35020KT 11/M00 A2962 RMK A01 T01141002  RH  045%=      5-min Rain = 0
KPA1 182206Z 36024KT 11/M00 A2963 RMK A01 T01131002  RH  045%=      5-min Rain = 0
KPA1 182207Z 35021G26KT 11/M00 A2963 RMK A01 T01111002  RH  046%=      5-min Rain = 0
KPA1 182208Z 36024G30KT 11/M00 A2963 RMK A01 T01101002  RH  046%=      5-min Rain = 0
KPA1 182209Z 36024G29KT 11/M00 A2963 RMK A01 T01081002  RH  047%=      5-min Rain = 0
KPA1 182210Z 00023G28KT 11/M00 A2964 RMK A01 T01061001  RH  047%=      5-min Rain = 0
KPA1 182211Z 00021KT 11/M00 A2964 RMK A01 T01051001  RH  048%=      5-min Rain = 0
KPA1 182212Z 36022G27KT 11/00 A2964 RMK A01 T01050000  RH  048%=      5-min Rain = 0
KPA1 182213Z 36024G29KT 10/00 A2964 RMK A01 T01040001  RH  049%=      5-min Rain = 0
KPA1 182214Z 36024KT 10/00 A2964 RMK A01 T01020000  RH  049%=      5-min Rain = 0
KPA1 182215Z 00022KT 10/00 A2964 RMK A01 T01000000  RH  050%=      5-min Rain = 0
KPA1 182216Z 36023KT 10/00 A2964 RMK A01 T00990001  RH  051%=      5-min Rain = 0
KPA1 182217Z 00022G27KT 10/00 A2964 RMK A01 T00980001  RH  051%=      5-min Rain = 0
KPA1 182218Z 00018KT 10/00 A2964 RMK A01 T00980002  RH  051%=      5-min Rain = 0
KPA1 182219Z 36023G29KT 10/00 A2965 RMK A01 T00970002  RH  052%=      5-min Rain = 0
KPA1 182220Z 00024G29KT 10/00 A2965 RMK A01 T00950001  RH  052%=      5-min Rain = 0
KPA1 182221Z 36025G30KT 09/00 A2965 RMK A01 T00930001  RH  053%=      5-min Rain = 0
KPA1 182222Z 36024G30KT 09/00 A2965 RMK A01 T00910001  RH  053%=      5-min Rain = 0
KPA1 182223Z 36025KT 09/00 A2965 RMK A01 T00890001  RH  054%=      5-min Rain = 0
KPA1 182224Z 36023KT 09/00 A2965 RMK A01 T00870001  RH  055%=      5-min Rain = 0
KPA1 182225Z 36022KT 09/00 A2965 RMK A01 T00870002  RH  055%=      5-min Rain = 0
KPA1 182226Z 36022G27KT 09/00 A2965 RMK A01 T00860002  RH  056%=      5-min Rain = 0
KPA1 182227Z 00021KT 09/00 A2965 RMK A01 T00860003  RH  056%=      5-min Rain = 0
KPA1 182228Z 36024KT 09/00 A2965 RMK A01 T00850003  RH  056%=      5-min Rain = 0
KPA1 182229Z 00023KT 08/00 A2965 RMK A01 T00840003  RH  057%=      5-min Rain = 0
KPA1 182230Z 36019G25KT 08/00 A2965 RMK A01 T00830003  RH  057%=      5-min Rain = 0
KPA1 182231Z 00021G26KT 08/00 A2965 RMK A01 T00830004  RH  057%=      5-min Rain = 0
KPA1 182232Z 35020KT 08/00 A2965 RMK A01 T00830003  RH  057%=      5-min Rain = 0
KPA1 182233Z 35024KT 08/00 A2965 RMK A01 T00820002  RH  057%=      5-min Rain = 0
KPA1 182234Z 35022KT 08/00 A2965 RMK A01 T00810001  RH  057%=      5-min Rain = 0
KPA1 182235Z 35023G28KT 08/00 A2965 RMK A01 T00800001  RH  057%=      5-min Rain = 0
KPA1 182236Z 35022G27KT 08/00 A2966 RMK A01 T00790001  RH  058%=      5-min Rain = 0
KPA1 182237Z 35023KT 08/00 A2966 RMK A01 T00780000  RH  058%=      5-min Rain = 0
KPA1 182238Z 35024KT 08/00 A2966 RMK A01 T00770001  RH  058%=      5-min Rain = 0
KPA1 182239Z 35022G27KT 08/00 A2966 RMK A01 T00760001  RH  059%=      5-min Rain = 0
KPA1 182240Z 35024KT 08/00 A2966 RMK A01 T00760002  RH  059%=      5-min Rain = 0
KPA1 182241Z 35026G31KT 08/00 A2966 RMK A01 T00750002  RH  060%=      5-min Rain = 0
KPA1 182242Z 35023G28KT 07/00 A2966 RMK A01 T00740002  RH  060%=      5-min Rain = 0
KPA1 182243Z 35027KT 07/00 A2966 RMK A01 T00730001  RH  061%=      5-min Rain = 0
KPA1 182244Z 35027G33KT 07/00 A2967 RMK A01 T00720001  RH  061%=      5-min Rain = 0
KPA1 182245Z 35024KT 07/00 A2967 RMK A01 T00710001  RH  061%=      5-min Rain = 0
KPA1 182246Z 35024G31KT 07/00 A2967 RMK A01 T00700001  RH  062%=      5-min Rain = 0
KPA1 182247Z 35026G32KT 07/00 A2967 RMK A01 T00690001  RH  062%=      5-min Rain = 0
KPA1 182248Z 35023G30KT 07/00 A2967 RMK A01 T00680000  RH  062%=      5-min Rain = 0
KPA1 182249Z 35025G30KT 07/00 A2968 RMK A01 T00670000  RH  063%=      5-min Rain = 0
KPA1 182250Z 34024KT 07/00 A2968 RMK A01 T00660000  RH  063%=      5-min Rain = 0
KPA1 182251Z 35021G32KT 07/00 A2968 RMK A01 T00650000  RH  063%=      5-min Rain = 0
KPA1 182252Z 35020G25KT 06/00 A2968 RMK A01 T00640001  RH  064%=      5-min Rain = 0
KPA1 182253Z 35024G30KT 06/00 A2968 RMK A01 T00630000  RH  064%=      5-min Rain = 0
KPA1 182254Z 35024G29KT 06/00 A2969 RMK A01 T006200-0  RH  064%=      5-min Rain = 0
KPA1 182255Z 34023G28KT 06/00 A2969 RMK A01 T006100-0  RH  065%=      5-min Rain = 0
KPA1 182256Z 35025KT 06/M00 A2969 RMK A01 T00601001  RH  065%=      5-min Rain = 0
KPA1 182257Z 35024G31KT 06/M00 A2969 RMK A01 T00581001  RH  066%=      5-min Rain = 0
KPA1 182258Z 35025KT 06/M00 A297 RMK A01 T00561002  RH  066%=      5-min Rain = 0
KPA1 182259Z 35027G32KT 06/M00 A297 RMK A01 T00551001  RH  067%=      5-min Rain = 0
KPA1 182300Z 35025G31KT 05/M00 A297 RMK A01 T00541001  RH  068%=      5-min Rain = 0
KPA1 182301Z 34026G31KT 05/M00 A297 RMK A01 T00531001  RH  068%=      5-min Rain = 0
KPA1 182302Z 35025G30KT 05/M00 A297 RMK A01 T00521001  RH  069%=      5-min Rain = 0
KPA1 182303Z 35027G35KT 05/M00 A297 RMK A01 T00521001  RH  069%=      5-min Rain = 0
KPA1 182304Z 35025G32KT 05/M00 A297 RMK A01 T00501002  RH  069%=      5-min Rain = 0
KPA1 182305Z 35026G31KT 05/M00 A297 RMK A01 T00491002  RH  069%=      5-min Rain = 0
KPA1 182306Z 35027KT 05/M00 A297 RMK A01 T00481002  RH  070%=      5-min Rain = 0
KPA1 182307Z 35024KT 05/M00 A297 RMK A01 T00471002  RH  070%=      5-min Rain = 0
KPA1 182308Z 35023G28KT 05/M00 A2971 RMK A01 T00471002  RH  071%=      5-min Rain = 0
KPA1 182309Z 34027KT 05/M00 A2971 RMK A01 T00471002  RH  071%=      5-min Rain = 0
KPA1 182310Z 34026KT 05/M00 A2971 RMK A01 T00461002  RH  071%=      5-min Rain = 0
KPA1 182311Z 35022G29KT 05/M00 A2971 RMK A01 T00461001  RH  071%=      5-min Rain = 0
KPA1 182312Z 35021KT 05/M00 A2971 RMK A01 T00461001  RH  071%=      5-min Rain = 0
KPA1 182313Z 35018G24KT 05/M00 A2972 RMK A01 T00461001  RH  071%=      5-min Rain = 0
KPA1 182314Z 35022G27KT 05/M00 A2972 RMK A01 T00461001  RH  071%=      5-min Rain = 0
KPA1 182315Z 35020G25KT 05/M00 A2972 RMK A01 T00461001  RH  071%=      5-min Rain = 0
KPA1 182316Z 35025G31KT 05/M00 A2971 RMK A01 T00451002  RH  072%=      5-min Rain = 0
KPA1 182317Z 35027KT 04/M00 A2972 RMK A01 T00441003  RH  072%=      5-min Rain = 0
KPA1 182318Z 34025G30KT 04/M00 A2972 RMK A01 T00421004  RH  072%=      5-min Rain = 0
KPA1 182319Z 34023KT 04/M00 A2972 RMK A01 T00411004  RH  073%=      5-min Rain = 0
KPA1 182320Z 34023G28KT 04/M01 A2973 RMK A01 T00401005  RH  073%=      5-min Rain = 0
KPA1 182321Z 34021G26KT 04/M01 A2973 RMK A01 T00391005  RH  073%=      5-min Rain = 0
KPA1 182322Z 34021G27KT 04/M01 A2973 RMK A01 T00391005  RH  073%=      5-min Rain = 0
KPA1 182323Z 34025KT 04/M01 A2973 RMK A01 T00381005  RH  073%=      5-min Rain = 0
KPA1 182324Z 34023G29KT 04/M01 A2973 RMK A01 T00371006  RH  074%=      5-min Rain = 0
KPA1 182325Z 34022G27KT 04/M01 A2973 RMK A01 T00371006  RH  074%=      5-min Rain = 0
KPA1 182326Z 34021KT 04/M01 A2973 RMK A01 T00371005  RH  074%=      5-min Rain = 0
KPA1 182327Z 35023KT 04/M01 A2973 RMK A01 T00361006  RH  074%=      5-min Rain = 0
KPA1 182328Z 34019G25KT 04/M01 A2973 RMK A01 T00361006  RH  074%=      5-min Rain = 0
KPA1 182329Z 34022G30KT 04/M01 A2974 RMK A01 T00351005  RH  075%=      5-min Rain = 0
KPA1 182330Z 34018KT 04/M01 A2974 RMK A01 T00351006  RH  075%=      5-min Rain = 0
KPA1 182331Z 34018KT 04/M01 A2974 RMK A01 T00351005  RH  075%=      5-min Rain = 0
KPA1 182332Z 35015KT 03/M01 A2974 RMK A01 T00341006  RH  075%=      5-min Rain = 0
KPA1 182333Z 35019KT 03/M01 A2974 RMK A01 T00341005  RH  075%=      5-min Rain = 0
KPA1 182334Z 35018KT 03/M01 A2974 RMK A01 T00341005  RH  075%=      5-min Rain = 0
KPA1 182335Z 36015G20KT 03/M01 A2974 RMK A01 T00341006  RH  075%=      5-min Rain = 0
KPA1 182336Z 35019G24KT 03/M01 A2975 RMK A01 T00341006  RH  075%=      5-min Rain = 0
KPA1 182337Z 35017G24KT 03/M01 A2975 RMK A01 T00331007  RH  075%=      5-min Rain = 0
KPA1 182338Z 36022KT 03/M01 A2975 RMK A01 T00311007  RH  076%=      5-min Rain = 0
KPA1 182339Z 36021KT 03/M01 A2975 RMK A01 T00301008  RH  076%=      5-min Rain = 0
KPA1 182340Z 36024G29KT 03/M01 A2975 RMK A01 T00291008  RH  077%=      5-min Rain = 0
KPA1 182341Z 36020KT 03/M01 A2975 RMK A01 T00281008  RH  077%=      5-min Rain = 0
KPA1 182342Z 36020KT 03/M01 A2975 RMK A01 T00281008  RH  077%=      5-min Rain = 0
KPA1 182343Z 35024G30KT 03/M01 A2975 RMK A01 T00281008  RH  077%=      5-min Rain = 0
KPA1 182344Z 35024G29KT 03/M01 A2974 RMK A01 T00271009  RH  077%=      5-min Rain = 0
KPA1 182345Z 35026KT 03/M01 A2974 RMK A01 T00271009  RH  077%=      5-min Rain = 0
KPA1 182346Z 34024G29KT 03/M01 A2974 RMK A01 T00261009  RH  078%=      5-min Rain = 0
KPA1 182347Z 35022G27KT 03/M01 A2975 RMK A01 T00251009  RH  078%=      5-min Rain = 0
KPA1 182348Z 35027KT 03/M01 A2975 RMK A01 T00251009  RH  078%=      5-min Rain = 0
KPA1 182349Z 35023G29KT 02/M01 A2975 RMK A01 T00241009  RH  079%=      5-min Rain = 0
KPA1 182350Z 35023G30KT 02/M01 A2975 RMK A01 T00241009  RH  079%=      5-min Rain = 0
KPA1 182351Z 35026KT 02/M01 A2975 RMK A01 T00241009  RH  079%=      5-min Rain = 0
KPA1 182352Z 35022KT 02/M01 A2974 RMK A01 T00231009  RH  079%=      5-min Rain = 0
KPA1 182353Z 35024G31KT 02/M01 A2974 RMK A01 T00231009  RH  079%=      5-min Rain = 0
KPA1 182354Z 35028G33KT 02/M01 A2974 RMK A01 T00231010  RH  079%=      5-min Rain = 0
KPA1 182355Z 35023G30KT 02/M01 A2974 RMK A01 T00221010  RH  079%=      5-min Rain = 0
KPA1 182356Z 35022G32KT 02/M01 A2974 RMK A01 T00221010  RH  080%=      5-min Rain = 0
KPA1 182357Z 35024KT 02/M01 A2974 RMK A01 T00221010  RH  079%=      5-min Rain = 0
KPA1 182358Z 35030G35KT 02/M01 A2974 RMK A01 T00221010  RH  079%=      5-min Rain = 0
KPA1 182359Z 35028G33KT 02/M01 A2974 RMK A01 T00211011  RH  079%=      5-min Rain = 0
KPA1 190000Z 36027KT 02/M01 A2974 RMK A01 T00201011  RH  080%=      5-min Rain = 0
KPA1 190001Z 36024G31KT 02/M01 A2975 RMK A01 T00191012  RH  080%=      5-min Rain = 0
KPA1 190002Z 35025KT 02/M01 A2975 RMK A01 T00201011  RH  080%=      5-min Rain = 0
KPA1 190003Z 36031KT 02/M01 A2975 RMK A01 T00191011  RH  080%=      5-min Rain = 0
KPA1 190004Z 00026KT 02/M01 A2975 RMK A01 T00191012  RH  080%=      5-min Rain = 0
KPA1 190005Z 35028G34KT 02/M01 A2975 RMK A01 T00191012  RH  080%=      5-min Rain = 0
KPA1 190006Z 35028G35KT 02/M01 A2975 RMK A01 T00181012  RH  080%=      5-min Rain = 0
KPA1 190007Z 35030G36KT 02/M01 A2975 RMK A01 T00171013  RH  080%=      5-min Rain = 0
KPA1 190008Z 35029G37KT 02/M01 A2976 RMK A01 T00171013  RH  080%=      5-min Rain = 0
KPA1 190009Z 35027G37KT 02/M01 A2976 RMK A01 T00161014  RH  081%=      5-min Rain = 0
KPA1 190010Z 36029G36KT 02/M01 A2976 RMK A01 T00161014  RH  081%=      5-min Rain = 0
KPA1 190011Z 36026G32KT 02/M01 A2976 RMK A01 T00151014  RH  081%=      5-min Rain = 0
KPA1 190012Z 35027G34KT 01/M01 A2976 RMK A01 T00141014  RH  081%=      5-min Rain = 0
KPA1 190013Z 36028G36KT 01/M01 A2976 RMK A01 T00141014  RH  082%=      5-min Rain = 0
KPA1 190014Z 35025G30KT 02/M01 A2977 RMK A01 T00151013  RH  082%=      5-min Rain = 0
KPA1 190015Z 35023G29KT 01/M01 A2977 RMK A01 T00141014  RH  082%=      5-min Rain = 0
KPA1 190016Z 35022KT 02/M01 A2977 RMK A01 T00151013  RH  082%=      5-min Rain = 0
KPA1 190017Z 35020G25KT 02/M01 A2977 RMK A01 T00151013  RH  082%=      5-min Rain = 0
KPA1 190018Z 35021G26KT 02/M01 A2977 RMK A01 T00151013  RH  082%=      5-min Rain = 0
KPA1 190019Z 34022G27KT 02/M01 A2977 RMK A01 T00151013  RH  081%=      5-min Rain = 0
KPA1 190020Z 35028KT 02/M01 A2977 RMK A01 T00161013  RH  081%=      5-min Rain = 0
KPA1 190021Z 35024KT 02/M01 A2978 RMK A01 T00151013  RH  081%=      5-min Rain = 0
KPA1 190022Z 35021G27KT 02/M01 A2978 RMK A01 T00151014  RH  081%=      5-min Rain = 0
KPA1 190023Z 35024G33KT 02/M01 A2978 RMK A01 T00151014  RH  081%=      5-min Rain = 0
KPA1 190024Z 35024G31KT 02/M01 A2978 RMK A01 T00151014  RH  081%=      5-min Rain = 0
KPA1 190025Z 35026G31KT 01/M01 A2978 RMK A01 T00141014  RH  081%=      5-min Rain = 0
KPA1 190026Z 35023G29KT 02/M02 A2978 RMK A01 T00151015  RH  081%=      5-min Rain = 0
KPA1 190027Z 35022KT 01/M02 A2978 RMK A01 T00141015  RH  081%=      5-min Rain = 0
KPA1 190028Z 35024G33KT 02/M02 A2979 RMK A01 T00151015  RH  081%=      5-min Rain = 0
KPA1 190029Z 35022G28KT 01/M02 A2979 RMK A01 T00141015  RH  081%=      5-min Rain = 0
KPA1 190030Z 35021KT 02/M01 A2979 RMK A01 T00151014  RH  081%=      5-min Rain = 0
KPA1 190031Z 35021KT 01/M02 A2979 RMK A01 T00141015  RH  081%=      5-min Rain = 0
KPA1 190032Z 35022G28KT 01/M01 A2979 RMK A01 T00141014  RH  081%=      5-min Rain = 0
KPA1 190033Z 34020G25KT 01/M01 A2979 RMK A01 T00141014  RH  081%=      5-min Rain = 0
KPA1 190034Z 35020G26KT 01/M01 A2979 RMK A01 T00141014  RH  082%=      5-min Rain = 0
KPA1 190035Z 35027KT 01/M01 A298 RMK A01 T00141014  RH  081%=      5-min Rain = 0
KPA1 190036Z 35025G30KT 01/M02 A298 RMK A01 T00141015  RH  081%=      5-min Rain = 0
KPA1 190037Z 35023G31KT 01/M02 A298 RMK A01 T00141015  RH  081%=      5-min Rain = 0
KPA1 190038Z 34025G33KT 01/M02 A298 RMK A01 T00141015  RH  081%=      5-min Rain = 0
KPA1 190039Z 35024G33KT 01/M02 A298 RMK A01 T00131016  RH  081%=      5-min Rain = 0
KPA1 190040Z 35029KT 01/M02 A298 RMK A01 T00131016  RH  081%=      5-min Rain = 0
KPA1 190041Z 35029G36KT 01/M02 A298 RMK A01 T00121017  RH  081%=      5-min Rain = 0
KPA1 190042Z 35026G33KT 01/M02 A298 RMK A01 T00121017  RH  081%=      5-min Rain = 0
KPA1 190043Z 35027G34KT 01/M02 A298 RMK A01 T00121017  RH  081%=      5-min Rain = 0
KPA1 190044Z 35027G33KT 01/M02 A298 RMK A01 T00121017  RH  081%=      5-min Rain = 0
KPA1 190045Z 35025G32KT 01/M02 A298 RMK A01 T00121017  RH  081%=      5-min Rain = 0
KPA1 190046Z 34023KT 01/M02 A298 RMK A01 T00121017  RH  081%=      5-min Rain = 0
KPA1 190047Z 35025KT 01/M02 A298 RMK A01 T00121017  RH  081%=      5-min Rain = 0
KPA1 190048Z 34023G29KT 01/M02 A298 RMK A01 T00121017  RH  081%=      5-min Rain = 0
KPA1 190049Z 34026G32KT 01/M02 A298 RMK A01 T00121017  RH  081%=      5-min Rain = 0
KPA1 190050Z 35027G36KT 01/M02 A2981 RMK A01 T00121017  RH  081%=      5-min Rain = 0
KPA1 190051Z 34025G31KT 01/M02 A2981 RMK A01 T00111017  RH  082%=      5-min Rain = 0
KPA1 190052Z 34026KT 01/M02 A2981 RMK A01 T00111017  RH  082%=      5-min Rain = 0
KPA1 190053Z 34025G33KT 01/M02 A298 RMK A01 T00111017  RH  082%=      5-min Rain = 0
KPA1 190054Z 35025G36KT 01/M02 A2981 RMK A01 T00111017  RH  082%=      5-min Rain = 0
KPA1 190055Z 35031G41KT 01/M02 A2981 RMK A01 T00101017  RH  082%=      5-min Rain = 0
KPA1 190056Z 34028G33KT 01/M02 A2981 RMK A01 T00101017  RH  082%=      5-min Rain = 0
KPA1 190057Z 34026G32KT 01/M02 A2981 RMK A01 T00091017  RH  082%=      5-min Rain = 0
KPA1 190058Z 35025G30KT 01/M02 A2981 RMK A01 T00081017  RH  083%=      5-min Rain = 0
KPA1 190059Z 35024G33KT 01/M02 A2981 RMK A01 T00081017  RH  083%=      5-min Rain = 0
KPA1 190100Z 35029G37KT 01/M02 A2981 RMK A01 T00081017  RH  083%=      5-min Rain = 0
KPA1 190101Z 34028G34KT 01/M02 A2981 RMK A01 T00081017  RH  083%=      5-min Rain = 0
KPA1 190102Z 35028G33KT 01/M02 A2981 RMK A01 T00081017  RH  083%=      5-min Rain = 0
KPA1 190103Z 35025G30KT 01/M02 A2981 RMK A01 T00081017  RH  083%=      5-min Rain = 0
KPA1 190104Z 35025G32KT 01/M02 A2982 RMK A01 T00081018  RH  083%=      5-min Rain = 0
KPA1 190105Z 35021G30KT 01/M02 A2982 RMK A01 T00081017  RH  083%=      5-min Rain = 0
KPA1 190106Z 35028G36KT 01/M02 A2982 RMK A01 T00081017  RH  083%=      5-min Rain = 0
KPA1 190107Z 35029G34KT 01/M02 A2982 RMK A01 T00081018  RH  083%=      5-min Rain = 0
KPA1 190108Z 35027KT 01/M02 A2982 RMK A01 T00081018  RH  082%=      5-min Rain = 0
KPA1 190109Z 35024G29KT 01/M02 A2982 RMK A01 T00091018  RH  082%=      5-min Rain = 0
KPA1 190110Z 34023G28KT 01/M02 A2982 RMK A01 T00091018  RH  082%=      5-min Rain = 0
KPA1 190111Z 34023G29KT 01/M02 A2982 RMK A01 T00091018  RH  082%=      5-min Rain = 0
KPA1 190112Z 34026G36KT 01/M02 A2982 RMK A01 T00091019  RH  082%=      5-min Rain = 0
KPA1 190113Z 35033G40KT 01/M02 A2982 RMK A01 T00091020  RH  081%=      5-min Rain = 0
KPA1 190114Z 35025G30KT 01/M02 A2982 RMK A01 T00091020  RH  081%=      5-min Rain = 0
KPA1 190115Z 35022G30KT 01/M02 A2982 RMK A01 T00091019  RH  081%=      5-min Rain = 0
KPA1 190116Z 35031G36KT 01/M02 A2982 RMK A01 T00091020  RH  081%=      5-min Rain = 0
KPA1 190117Z 36028G33KT 01/M02 A2983 RMK A01 T00091020  RH  081%=      5-min Rain = 0
KPA1 190118Z 35027G34KT 01/M02 A2982 RMK A01 T00081020  RH  081%=      5-min Rain = 0
KPA1 190119Z 35033G39KT 01/M02 A2982 RMK A01 T00091020  RH  081%=      5-min Rain = 0
KPA1 190120Z 35033G39KT 01/M02 A2982 RMK A01 T00081021  RH  081%=      5-min Rain = 0
KPA1 190121Z 35030G36KT 01/M02 A2982 RMK A01 T00081021  RH  081%=      5-min Rain = 0
KPA1 190122Z 36030G35KT 01/M02 A2983 RMK A01 T00081021  RH  081%=      5-min Rain = 0
KPA1 190123Z 34025G34KT 01/M02 A2982 RMK A01 T00081020  RH  081%=      5-min Rain = 0
KPA1 190124Z 35028G35KT 01/M02 A2983 RMK A01 T00081020  RH  082%=      5-min Rain = 0
KPA1 190125Z 35030G38KT 01/M02 A2983 RMK A01 T00071020  RH  082%=      5-min Rain = 0
KPA1 190126Z 35028KT 01/M02 A2983 RMK A01 T00071019  RH  083%=      5-min Rain = 0
KPA1 190127Z 35028KT 01/M02 A2983 RMK A01 T00061019  RH  083%=      5-min Rain = 0
KPA1 190128Z 35027KT 01/M02 A2983 RMK A01 T00061018  RH  084%=      5-min Rain = 0
KPA1 190129Z 35022KT 01/M02 A2983 RMK A01 T00061018  RH  084%=      5-min Rain = 0
KPA1 190130Z 35023G28KT 01/M02 A2983 RMK A01 T00061018  RH  084%=      5-min Rain = 0
KPA1 190131Z 35023G29KT 01/M02 A2983 RMK A01 T00061017  RH  085%=      5-min Rain = 0
KPA1 190132Z 35027G34KT 01/M02 A2983 RMK A01 T00061017  RH  085%=      5-min Rain = 0
KPA1 190133Z 35027KT 01/M02 A2983 RMK A01 T00051017  RH  085%=      5-min Rain = 0
KPA1 190134Z 35027KT 01/M02 A2983 RMK A01 T00051017  RH  085%=      5-min Rain = 0
KPA1 190135Z 34028G35KT 00/M02 A2983 RMK A01 T00041017  RH  086%=      5-min Rain = 0
KPA1 190136Z 34026G34KT 00/M02 A2983 RMK A01 T00041017  RH  086%=      5-min Rain = 0
KPA1 190137Z 34023G28KT 00/M02 A2984 RMK A01 T00031017  RH  086%=      5-min Rain = 0
KPA1 190138Z 35024G32KT 00/M02 A2984 RMK A01 T00031017  RH  087%=      5-min Rain = 0
KPA1 190139Z 35025G31KT 00/M02 A2984 RMK A01 T00031017  RH  086%=      5-min Rain = 0
KPA1 190140Z 35024KT 00/M02 A2984 RMK A01 T00031018  RH  086%=      5-min Rain = 0
KPA1 190141Z 34031G36KT 00/M02 A2984 RMK A01 T00031019  RH  085%=      5-min Rain = 0
KPA1 190142Z 35031G36KT 00/M02 A2984 RMK A01 T00031020  RH  085%=      5-min Rain = 0
KPA1 190143Z 35035G45KT 00/M02 A2984 RMK A01 T00021020  RH  085%=      5-min Rain = 0
KPA1 190144Z 35033G45KT 00/M02 A2984 RMK A01 T00021021  RH  085%=      5-min Rain = 0
KPA1 190145Z 35032G41KT 00/M02 A2984 RMK A01 T00011022  RH  085%=      5-min Rain = 0
KPA1 190146Z 35033G43KT 00/M02 A2984 RMK A01 T00011022  RH  085%=      5-min Rain = 0
KPA1 190147Z 35029G34KT 00/02 A2984 RMK A01 T00000-21  RH  085%=      5-min Rain = 0
KPA1 190148Z 35028G33KT 00/02 A2984 RMK A01 T00000-21  RH  086%=      5-min Rain = 0
KPA1 190149Z 35030KT 00/02 A2984 RMK A01 T00-00-20  RH  087%=      5-min Rain = 0
KPA1 190150Z 35027G33KT M00/M02 A2985 RMK A01 T10011019  RH  087%=      5-min Rain = 0
KPA1 190151Z 35025G31KT M00/M02 A2985 RMK A01 T10011018  RH  088%=      5-min Rain = 0
KPA1 190152Z 35028G33KT M00/M02 A2985 RMK A01 T10011018  RH  088%=      5-min Rain = 0
KPA1 190153Z 35025G30KT M00/M02 A2985 RMK A01 T10011018  RH  089%=      5-min Rain = 0
KPA1 190154Z 35028G33KT M00/M02 A2985 RMK A01 T10021017  RH  089%=      5-min Rain = 0
KPA1 190155Z 35032G38KT M00/M02 A2985 RMK A01 T10021017  RH  090%=      5-min Rain = 0
KPA1 190156Z 35030G35KT M00/M02 A2986 RMK A01 T10021017  RH  090%=      5-min Rain = 0
KPA1 190157Z 35032G40KT M00/M02 A2986 RMK A01 T10021017  RH  090%=      5-min Rain = 0
KPA1 190158Z 35026G33KT M00/M02 A2986 RMK A01 T10021017  RH  089%=      5-min Rain = 0
KPA1 190159Z 35030G36KT M00/M02 A2986 RMK A01 T10021018  RH  089%=      5-min Rain = 0
KPA1 190200Z 35031G36KT M00/M02 A2986 RMK A01 T10031019  RH  089%=      5-min Rain = 0
KPA1 190201Z 35029G37KT M00/M02 A2986 RMK A01 T10021020  RH  088%=      5-min Rain = 0
KPA1 190202Z 35030KT M00/M02 A2987 RMK A01 T10021021  RH  087%=      5-min Rain = 0
KPA1 190203Z 35032G41KT M00/M02 A2987 RMK A01 T10031021  RH  087%=      5-min Rain = 0
KPA1 190204Z 35037G44KT M00/M02 A2986 RMK A01 T10031022  RH  087%=      5-min Rain = 0
KPA1 190205Z 35030G35KT M00/M02 A2987 RMK A01 T10031023  RH  086%=      5-min Rain = 0
KPA1 190206Z 35030KT M00/M02 A2987 RMK A01 T10031022  RH  087%=      5-min Rain = 0
KPA1 190207Z 35028G35KT M00/M02 A2987 RMK A01 T10031022  RH  087%=      5-min Rain = 0
KPA1 190208Z 35030G36KT M00/M02 A2987 RMK A01 T10031023  RH  087%=      5-min Rain = 0
KPA1 190209Z 36028KT M00/M02 A2987 RMK A01 T10031023  RH  087%=      5-min Rain = 0
KPA1 190210Z 34031G36KT M00/M02 A2987 RMK A01 T10031023  RH  087%=      5-min Rain = 0
KPA1 190211Z 35030G38KT M00/M02 A2987 RMK A01 T10031023  RH  087%=      5-min Rain = 0
KPA1 190212Z 35024G29KT M00/M02 A2987 RMK A01 T10041023  RH  087%=      5-min Rain = 0
KPA1 190213Z 35026G31KT M00/M02 A2987 RMK A01 T10041022  RH  087%=      5-min Rain = 0
KPA1 190214Z 35028G36KT M00/M02 A2987 RMK A01 T10041022  RH  087%=      5-min Rain = 0
KPA1 190215Z 35027G33KT M00/M02 A2987 RMK A01 T10041023  RH  088%=      5-min Rain = 0
KPA1 190216Z 35026G36KT M01/M02 A2986 RMK A01 T10051022  RH  088%=      5-min Rain = 0
KPA1 190217Z 35033G38KT M01/M02 A2987 RMK A01 T10051022  RH  088%=      5-min Rain = 0
KPA1 190218Z 35030G35KT M01/M02 A2987 RMK A01 T10051022  RH  088%=      5-min Rain = 0
KPA1 190219Z 36029G35KT M01/M02 A2987 RMK A01 T10051022  RH  088%=      5-min Rain = 0
KPA1 190220Z 35028G35KT M01/M02 A2987 RMK A01 T10061022  RH  088%=      5-min Rain = 0
KPA1 190221Z 35031G39KT M01/M02 A2987 RMK A01 T10061022  RH  089%=      5-min Rain = 0
KPA1 190222Z 35030G38KT M01/M02 A2987 RMK A01 T10061022  RH  089%=      5-min Rain = 0
KPA1 190223Z 35031G41KT M01/M02 A2987 RMK A01 T10071023  RH  089%=      5-min Rain = 0
KPA1 190224Z 35032G40KT M01/M02 A2987 RMK A01 T10071022  RH  089%=      5-min Rain = 0
KPA1 190225Z 35033G38KT M01/M02 A2987 RMK A01 T10071022  RH  089%=      5-min Rain = 0
KPA1 190226Z 35029G38KT M01/M02 A2987 RMK A01 T10071023  RH  089%=      5-min Rain = 0
KPA1 190227Z 35032G38KT M01/M02 A2987 RMK A01 T10071023  RH  089%=      5-min Rain = 0
KPA1 190228Z 36028G35KT M01/M02 A2987 RMK A01 T10071023  RH  089%=      5-min Rain = 0
KPA1 190229Z 35031KT M01/M02 A2988 RMK A01 T10071023  RH  089%=      5-min Rain = 0
KPA1 190230Z 35036G43KT M01/M02 A2988 RMK A01 T10061024  RH  088%=      5-min Rain = 0
KPA1 190231Z 36032G39KT M01/M02 A2988 RMK A01 T10061024  RH  088%=      5-min Rain = 0
KPA1 190232Z 35031G37KT M01/M02 A2988 RMK A01 T10061024  RH  088%=      5-min Rain = 0
KPA1 190233Z 35034G41KT M01/M02 A2988 RMK A01 T10061024  RH  087%=      5-min Rain = 0
KPA1 190234Z 35032G40KT M01/M02 A2988 RMK A01 T10051024  RH  087%=      5-min Rain = 0
KPA1 190235Z 35034G40KT M01/M03 A2988 RMK A01 T10061025  RH  087%=      5-min Rain = 0
KPA1 190236Z 35027G34KT M01/M03 A2988 RMK A01 T10061025  RH  087%=      5-min Rain = 0
KPA1 190237Z 35029G34KT M01/M02 A2988 RMK A01 T10061024  RH  087%=      5-min Rain = 0
KPA1 190238Z 36026G34KT M01/M02 A2989 RMK A01 T10061024  RH  088%=      5-min Rain = 0
KPA1 190239Z 35026G33KT M01/M02 A2989 RMK A01 T10061023  RH  088%=      5-min Rain = 0
KPA1 190240Z 35030G37KT M01/M02 A2989 RMK A01 T10061023  RH  088%=      5-min Rain = 0
KPA1 190241Z 35027G34KT M01/M02 A2989 RMK A01 T10061023  RH  088%=      5-min Rain = 0
KPA1 190242Z 35030G40KT M01/M02 A2989 RMK A01 T10061023  RH  088%=      5-min Rain = 0
KPA1 190243Z 34026G33KT M01/M02 A2989 RMK A01 T10061023  RH  088%=      5-min Rain = 0
KPA1 190244Z 35023G28KT M01/M02 A2989 RMK A01 T10071023  RH  089%=      5-min Rain = 0
KPA1 190245Z 35027G32KT M01/M02 A2989 RMK A01 T10061022  RH  089%=      5-min Rain = 0
KPA1 190246Z 35026G34KT M01/M02 A299 RMK A01 T10071022  RH  090%=      5-min Rain = 0
KPA1 190247Z 35029G34KT M01/M02 A299 RMK A01 T10071022  RH  090%=      5-min Rain = 0
KPA1 190248Z 35029G35KT M01/M02 A299 RMK A01 T10071022  RH  090%=      5-min Rain = 0
KPA1 190249Z 34023G28KT M01/M02 A299 RMK A01 T10071021  RH  090%=      5-min Rain = 0
KPA1 190250Z 35027G33KT M01/M02 A299 RMK A01 T10071021  RH  090%=      5-min Rain = 0
KPA1 190251Z 34030KT M01/M02 A299 RMK A01 T10071021  RH  091%=      5-min Rain = 0
KPA1 190252Z 35030G36KT M01/M02 A299 RMK A01 T10081021  RH  091%=      5-min Rain = 0
KPA1 190253Z 34030G35KT M01/M02 A299 RMK A01 T10081021  RH  091%=      5-min Rain = 0
KPA1 190254Z 35031KT M01/M02 A299 RMK A01 T10081021  RH  091%=      5-min Rain = 0
KPA1 190255Z 35025KT M01/M02 A2991 RMK A01 T10081021  RH  091%=      5-min Rain = 0
KPA1 190256Z 35029G34KT M01/M02 A2991 RMK A01 T10081020  RH  092%=      5-min Rain = 0
KPA1 190257Z 35026G32KT M01/M02 A2991 RMK A01 T10081020  RH  092%=      5-min Rain = 0
KPA1 190258Z 34022KT M01/M02 A2991 RMK A01 T10091019  RH  093%=      5-min Rain = 0
KPA1 190259Z 35022G27KT M01/M02 A2991 RMK A01 T10091019  RH  093%=      5-min Rain = 0
KPA1 190300Z 35023G29KT M01/M02 A2991 RMK A01 T10091018  RH  093%=      5-min Rain = 0
KPA1 190301Z 35025G30KT M01/M02 A2991 RMK A01 T10091018  RH  094%=      5-min Rain = 0
KPA1 190302Z 34027KT M01/M02 A2991 RMK A01 T10091018  RH  094%=      5-min Rain = 0
KPA1 190303Z 34022G29KT M01/M02 A2991 RMK A01 T10091018  RH  094%=      5-min Rain = 0
KPA1 190304Z 35030G37KT M01/M02 A2991 RMK A01 T10091018  RH  094%=      5-min Rain = 0
KPA1 190305Z 35024G30KT M01/M02 A2991 RMK A01 T10091018  RH  094%=      5-min Rain = 0
KPA1 190306Z 34024G29KT M01/M02 A2991 RMK A01 T10091018  RH  094%=      5-min Rain = 0
KPA1 190307Z 34025G30KT M01/M02 A2991 RMK A01 T10091018  RH  094%=      5-min Rain = 0
KPA1 190308Z 34023KT M01/M02 A2991 RMK A01 T10091018  RH  094%=      5-min Rain = 0
KPA1 190309Z 35024G33KT M01/M02 A2991 RMK A01 T10101018  RH  094%=      5-min Rain = 0
KPA1 190310Z 35024G29KT M01/M02 A2991 RMK A01 T10091017  RH  094%=      5-min Rain = 0
KPA1 190311Z 34025KT M01/M02 A2991 RMK A01 T10091018  RH  094%=      5-min Rain = 0
KPA1 190312Z 35025KT M01/M02 A2992 RMK A01 T10091017  RH  094%=      5-min Rain = 0
KPA1 190313Z 35023G29KT M01/M02 A2992 RMK A01 T10091017  RH  094%=      5-min Rain = 0
KPA1 190314Z 34024G32KT M01/M02 A2992 RMK A01 T10091017  RH  094%=      5-min Rain = 0
KPA1 190315Z 35026KT M01/M02 A2992 RMK A01 T10091017  RH  094%=      5-min Rain = 0
KPA1 190316Z 35022G29KT M01/M02 A2992 RMK A01 T10091017  RH  094%=      5-min Rain = 0
KPA1 190317Z 35021KT M01/M02 A2993 RMK A01 T10101018  RH  094%=      5-min Rain = 0
KPA1 190318Z 35021G27KT M01/M02 A2993 RMK A01 T10091017  RH  094%=      5-min Rain = 0
KPA1 190319Z 35019G25KT M01/M02 A2993 RMK A01 T10091017  RH  095%=      5-min Rain = 0
KPA1 190320Z 35021G26KT M01/M02 A2993 RMK A01 T10091017  RH  095%=      5-min Rain = 0
KPA1 190321Z 35019G26KT M01/M02 A2993 RMK A01 T10091016  RH  095%=      5-min Rain = 0
KPA1 190322Z 35022G29KT M01/M02 A2993 RMK A01 T10091016  RH  095%=      5-min Rain = 0
KPA1 190323Z 34023KT M01/M02 A2993 RMK A01 T10091016  RH  095%=      5-min Rain = 0
KPA1 190324Z 34022G27KT M01/M02 A2993 RMK A01 T10091016  RH  095%=      5-min Rain = 0
KPA1 190325Z 35027G36KT M01/M02 A2993 RMK A01 T10091016  RH  095%=      5-min Rain = 0
KPA1 190326Z 35023G30KT M01/M02 A2993 RMK A01 T10091017  RH  094%=      5-min Rain = 0
KPA1 190327Z 34027G32KT M01/M02 A2993 RMK A01 T10081017  RH  094%=      5-min Rain = 0
KPA1 190328Z 34029G37KT M01/M02 A2993 RMK A01 T10081018  RH  093%=      5-min Rain = 0
KPA1 190329Z 34028G34KT M01/M02 A2993 RMK A01 T10081019  RH  093%=      5-min Rain = 0
KPA1 190330Z 35031G39KT M01/M02 A2993 RMK A01 T10081019  RH  093%=      5-min Rain = 0
KPA1 190331Z 35026KT M01/M02 A2994 RMK A01 T10081019  RH  092%=      5-min Rain = 0
KPA1 190332Z 35027KT M01/M02 A2994 RMK A01 T10081019  RH  092%=      5-min Rain = 0
KPA1 190333Z 35024G29KT M01/M02 A2994 RMK A01 T10091019  RH  092%=      5-min Rain = 0
KPA1 190334Z 35030G35KT M01/M02 A2994 RMK A01 T10091019  RH  093%=      5-min Rain = 0
KPA1 190335Z 35023KT M01/M02 A2994 RMK A01 T10091019  RH  093%=      5-min Rain = 0
KPA1 190336Z 35022G28KT M01/M02 A2994 RMK A01 T10091019  RH  093%=      5-min Rain = 0
KPA1 190337Z 35020KT M01/M02 A2994 RMK A01 T10091018  RH  094%=      5-min Rain = 0
KPA1 190338Z 35020G28KT M01/M02 A2995 RMK A01 T10091018  RH  094%=      5-min Rain = 0
KPA1 190339Z 35020KT M01/M02 A2995 RMK A01 T10091018  RH  094%=      5-min Rain = 0
KPA1 190340Z 35021G32KT M01/M02 A2995 RMK A01 T10091017  RH  094%=      5-min Rain = 0
KPA1 190341Z 35021G27KT M01/M02 A2995 RMK A01 T10091017  RH  094%=      5-min Rain = 0
KPA1 190342Z 35022KT M01/M02 A2995 RMK A01 T10091017  RH  094%=      5-min Rain = 0
KPA1 190343Z 35023KT M01/M02 A2995 RMK A01 T10091017  RH  094%=      5-min Rain = 0
KPA1 190344Z 35023G28KT M01/M02 A2995 RMK A01 T10091017  RH  094%=      5-min Rain = 0
KPA1 190345Z 35027G34KT M01/M02 A2995 RMK A01 T10091018  RH  094%=      5-min Rain = 0
KPA1 190346Z 35029G36KT M01/M02 A2995 RMK A01 T10091018  RH  094%=      5-min Rain = 0
KPA1 190347Z 35027KT M01/M02 A2995 RMK A01 T10091019  RH  094%=      5-min Rain = 0
KPA1 190348Z 35024G29KT M01/M02 A2995 RMK A01 T10091019  RH  093%=      5-min Rain = 0
KPA1 190349Z 35021G28KT M01/M02 A2996 RMK A01 T10091019  RH  093%=      5-min Rain = 0
KPA1 190350Z 00024KT M01/M02 A2996 RMK A01 T10101019  RH  093%=      5-min Rain = 0
KPA1 190351Z 36025G31KT M01/M02 A2996 RMK A01 T10101019  RH  094%=      5-min Rain = 0
KPA1 190352Z 35023G29KT M01/M02 A2996 RMK A01 T10101019  RH  094%=      5-min Rain = 0
KPA1 190353Z 36028KT M01/M02 A2996 RMK A01 T10101019  RH  094%=      5-min Rain = 0
KPA1 190354Z 36028G33KT M01/M02 A2996 RMK A01 T10111020  RH  093%=      5-min Rain = 0
KPA1 190355Z 36027G36KT M01/M02 A2996 RMK A01 T10111021  RH  093%=      5-min Rain = 0
KPA1 190356Z 35028KT M01/M02 A2996 RMK A01 T10111022  RH  093%=      5-min Rain = 0
KPA1 190357Z 36028G33KT M01/M02 A2996 RMK A01 T10121023  RH  092%=      5-min Rain = 0
KPA1 190358Z 36033G40KT M01/M03 A2996 RMK A01 T10121025  RH  091%=      5-min Rain = 0
KPA1 190359Z 36030G37KT M01/M03 A2997 RMK A01 T10131026  RH  091%=      5-min Rain = 0
KPA1 190400Z 36032G42KT M01/M03 A2997 RMK A01 T10141027  RH  091%=      5-min Rain = 0
KPA1 190401Z 35031G39KT M01/M03 A2997 RMK A01 T10141027  RH  091%=      5-min Rain = 0
KPA1 190402Z 35030G37KT M01/M03 A2997 RMK A01 T10141027  RH  091%=      5-min Rain = 0
KPA1 190403Z 35028G35KT M01/M03 A2997 RMK A01 T10141028  RH  090%=      5-min Rain = 0
KPA1 190404Z 35031G36KT M01/M03 A2997 RMK A01 T10141028  RH  090%=      5-min Rain = 0
KPA1 190405Z 35027G33KT M01/M03 A2997 RMK A01 T10141028  RH  090%=      5-min Rain = 0
KPA1 190406Z 35027G34KT M01/M03 A2997 RMK A01 T10141028  RH  090%=      5-min Rain = 0
KPA1 190407Z 36027G35KT M01/M03 A2997 RMK A01 T10141027  RH  091%=      5-min Rain = 0
KPA1 190408Z 35025KT M01/M03 A2997 RMK A01 T10141027  RH  091%=      5-min Rain = 0
KPA1 190409Z 35026KT M01/M03 A2997 RMK A01 T10141027  RH  091%=      5-min Rain = 0
KPA1 190410Z 00023G28KT M01/M03 A2998 RMK A01 T10141026  RH  091%=      5-min Rain = 0
KPA1 190411Z 36023G28KT M01/M03 A2997 RMK A01 T10141026  RH  092%=      5-min Rain = 0
KPA1 190412Z 35025G33KT M01/M03 A2997 RMK A01 T10141026  RH  092%=      5-min Rain = 0
KPA1 190413Z 35027G34KT M01/M03 A2997 RMK A01 T10141025  RH  092%=      5-min Rain = 0
KPA1 190414Z 35029G35KT M01/M03 A2997 RMK A01 T10141026  RH  092%=      5-min Rain = 0
KPA1 190415Z 35025G31KT M02/M03 A2997 RMK A01 T10151026  RH  092%=      5-min Rain = 0
KPA1 190416Z 35023G28KT M01/M03 A2997 RMK A01 T10141025  RH  092%=      5-min Rain = 0
KPA1 190417Z 35026G31KT M01/M03 A2997 RMK A01 T10141025  RH  093%=      5-min Rain = 0
KPA1 190418Z 36027G34KT M01/M03 A2997 RMK A01 T10141025  RH  092%=      5-min Rain = 0
KPA1 190419Z 35023G29KT M01/M03 A2998 RMK A01 T10141025  RH  092%=      5-min Rain = 0
KPA1 190420Z 36023G29KT M01/M03 A2998 RMK A01 T10141025  RH  093%=      5-min Rain = 0
KPA1 190421Z 35027G32KT M01/M03 A2997 RMK A01 T10141025  RH  093%=      5-min Rain = 0
KPA1 190422Z 35030G38KT M01/M03 A2997 RMK A01 T10141025  RH  092%=      5-min Rain = 0
KPA1 190423Z 36029G37KT M01/M03 A2997 RMK A01 T10141026  RH  092%=      5-min Rain = 0
KPA1 190424Z 35027G32KT M01/M03 A2997 RMK A01 T10141025  RH  092%=      5-min Rain = 0
KPA1 190425Z 35023G30KT M01/M03 A2997 RMK A01 T10141026  RH  092%=      5-min Rain = 0
KPA1 190426Z 35028G38KT M01/M03 A2998 RMK A01 T10141025  RH  092%=      5-min Rain = 0
KPA1 190427Z 35028G33KT M01/M03 A2997 RMK A01 T10141025  RH  092%=      5-min Rain = 0
KPA1 190428Z 36029KT M01/M03 A2998 RMK A01 T10141026  RH  092%=      5-min Rain = 0
KPA1 190429Z 35028KT M01/M03 A2998 RMK A01 T10141026  RH  092%=      5-min Rain = 0
KPA1 190430Z 35030G38KT M01/M03 A2998 RMK A01 T10141026  RH  092%=      5-min Rain = 0
KPA1 190431Z 35026G33KT M01/M03 A2998 RMK A01 T10131026  RH  091%=      5-min Rain = 0
KPA1 190432Z 35027G32KT M01/M03 A2998 RMK A01 T10131026  RH  091%=      5-min Rain = 0
KPA1 190433Z 35023G29KT M01/M03 A2998 RMK A01 T10131027  RH  091%=      5-min Rain = 0
KPA1 190434Z 35025G31KT M01/M03 A2998 RMK A01 T10131027  RH  091%=      5-min Rain = 0
KPA1 190435Z 35028G35KT M01/M03 A2998 RMK A01 T10131027  RH  090%=      5-min Rain = 0
KPA1 190436Z 35030KT M01/M03 A2998 RMK A01 T10131027  RH  090%=      5-min Rain = 0
KPA1 190437Z 35029G35KT M01/M03 A2998 RMK A01 T10131027  RH  090%=      5-min Rain = 0
KPA1 190438Z 36027G32KT M01/M03 A2998 RMK A01 T10131027  RH  090%=      5-min Rain = 0
KPA1 190439Z 36027G33KT M01/M03 A2998 RMK A01 T10131028  RH  090%=      5-min Rain = 0
KPA1 190440Z 36028G34KT M01/M03 A2998 RMK A01 T10131028  RH  090%=      5-min Rain = 0
KPA1 190441Z 36026G33KT M01/M03 A2998 RMK A01 T10131028  RH  090%=      5-min Rain = 0
KPA1 190442Z 35026KT M01/M03 A2998 RMK A01 T10131027  RH  090%=      5-min Rain = 0
KPA1 190443Z 35029G35KT M01/M03 A2998 RMK A01 T10121027  RH  090%=      5-min Rain = 0
KPA1 190444Z 35027KT M01/M03 A2999 RMK A01 T10131027  RH  090%=      5-min Rain = 0
KPA1 190445Z 35024G29KT M01/M03 A2998 RMK A01 T10131027  RH  090%=      5-min Rain = 0
KPA1 190446Z 35024KT M01/M03 A2999 RMK A01 T10131027  RH  090%=      5-min Rain = 0
KPA1 190447Z 35024G29KT M01/M03 A2999 RMK A01 T10131027  RH  090%=      5-min Rain = 0
KPA1 190448Z 36025G32KT M01/M03 A2999 RMK A01 T10131027  RH  090%=      5-min Rain = 0
KPA1 190449Z 36024KT M01/M03 A2999 RMK A01 T10131027  RH  090%=      5-min Rain = 0
KPA1 190450Z 35025G30KT M01/M03 A2999 RMK A01 T10131027  RH  090%=      5-min Rain = 0
KPA1 190451Z 35025G34KT M01/M03 A2999 RMK A01 T10131027  RH  090%=      5-min Rain = 0
KPA1 190452Z 35024KT M01/M03 A2999 RMK A01 T10121026  RH  090%=      5-min Rain = 0
KPA1 190453Z 35027KT M01/M03 A2999 RMK A01 T10121026  RH  090%=      5-min Rain = 0
KPA1 190454Z 36027G32KT M01/M03 A2999 RMK A01 T10121026  RH  090%=      5-min Rain = 0
KPA1 190455Z 35026G33KT M01/M03 A2999 RMK A01 T10121026  RH  090%=      5-min Rain = 0
KPA1 190456Z 35026G35KT M01/M03 A2999 RMK A01 T10121026  RH  090%=      5-min Rain = 0
KPA1 190457Z 35021G27KT M01/M03 A30 RMK A01 T10121026  RH  091%=      5-min Rain = 0
KPA1 190458Z 35023KT M01/M03 A30 RMK A01 T10131026  RH  091%=      5-min Rain = 0
KPA1 190459Z 35021KT M01/M03 A30 RMK A01 T10131025  RH  091%=      5-min Rain = 0
KPA1 190500Z 35022G32KT M01/M03 A30 RMK A01 T10131025  RH  091%=      5-min Rain = 0
KPA1 190501Z 35024KT M01/M03 A30 RMK A01 T10121025  RH  091%=      5-min Rain = 0
KPA1 190502Z 35022G27KT M01/M03 A30 RMK A01 T10121025  RH  091%=      5-min Rain = 0
KPA1 190503Z 36022G28KT M01/M03 A30 RMK A01 T10121025  RH  091%=      5-min Rain = 0
KPA1 190504Z 35025KT M01/M03 A30 RMK A01 T10121025  RH  091%=      5-min Rain = 0
KPA1 190505Z 35023KT M01/M03 A3001 RMK A01 T10121025  RH  091%=      5-min Rain = 0
KPA1 190506Z 35025KT M01/M03 A30 RMK A01 T10121025  RH  091%=      5-min Rain = 0
KPA1 190507Z 35023G29KT M01/M03 A3001 RMK A01 T10121025  RH  091%=      5-min Rain = 0
KPA1 190508Z 35025G30KT M01/M03 A3001 RMK A01 T10121025  RH  091%=      5-min Rain = 0
KPA1 190509Z 35022G27KT M01/M03 A3001 RMK A01 T10121025  RH  091%=      5-min Rain = 0
KPA1 190510Z 34021G27KT M01/M03 A3001 RMK A01 T10111025  RH  091%=      5-min Rain = 0
KPA1 190511Z 35024G30KT M01/M03 A3001 RMK A01 T10111025  RH  090%=      5-min Rain = 0
KPA1 190512Z 35025G32KT M01/M03 A3001 RMK A01 T10111025  RH  090%=      5-min Rain = 0
KPA1 190513Z 35022G27KT M01/M03 A3001 RMK A01 T10111025  RH  091%=      5-min Rain = 0
KPA1 190514Z 35021G27KT M01/M03 A3001 RMK A01 T10111025  RH  091%=      5-min Rain = 0
KPA1 190515Z 35021KT M01/M02 A3001 RMK A01 T10111024  RH  091%=      5-min Rain = 0
KPA1 190516Z 35023KT M01/M02 A3001 RMK A01 T10111024  RH  091%=      5-min Rain = 0
KPA1 190517Z 35020G25KT M01/M02 A3002 RMK A01 T10111024  RH  091%=      5-min Rain = 0
KPA1 190518Z 34019KT M01/M02 A3002 RMK A01 T10111024  RH  091%=      5-min Rain = 0
KPA1 190519Z 34018KT M01/M02 A3002 RMK A01 T10111024  RH  091%=      5-min Rain = 0
KPA1 190520Z 34021KT M01/M02 A3002 RMK A01 T10111024  RH  091%=      5-min Rain = 0
KPA1 190521Z 34018G23KT M01/M02 A3002 RMK A01 T10111024  RH  091%=      5-min Rain = 0
KPA1 190522Z 34021G27KT M01/M02 A3002 RMK A01 T10111024  RH  091%=      5-min Rain = 0
KPA1 190523Z 34023G32KT M01/M02 A3002 RMK A01 T10111024  RH  091%=      5-min Rain = 0
KPA1 190524Z 35025G31KT M01/M02 A3002 RMK A01 T10111024  RH  091%=      5-min Rain = 0
KPA1 190525Z 35024KT M01/M02 A3002 RMK A01 T10101024  RH  090%=      5-min Rain = 0
KPA1 190526Z 35020KT M01/M02 A3002 RMK A01 T10101024  RH  090%=      5-min Rain = 0
KPA1 190527Z 34022G29KT M01/M02 A3002 RMK A01 T10101024  RH  091%=      5-min Rain = 0
KPA1 190528Z 34024KT M01/M02 A3002 RMK A01 T10101024  RH  091%=      5-min Rain = 0
KPA1 190529Z 35017G22KT M01/M02 A3002 RMK A01 T10101024  RH  091%=      5-min Rain = 0
KPA1 190530Z 35022KT M01/M02 A3002 RMK A01 T10101023  RH  091%=      5-min Rain = 0
KPA1 190531Z 34019KT M01/M02 A3002 RMK A01 T10101023  RH  091%=      5-min Rain = 0
KPA1 190532Z 35021G26KT M01/M02 A3002 RMK A01 T10101023  RH  091%=      5-min Rain = 0
KPA1 190533Z 35025G30KT M01/M02 A3003 RMK A01 T10101023  RH  091%=      5-min Rain = 0
KPA1 190534Z 35021KT M01/M02 A3003 RMK A01 T10101023  RH  091%=      5-min Rain = 0
KPA1 190535Z 34024G30KT M01/M02 A3003 RMK A01 T10101023  RH  091%=      5-min Rain = 0
KPA1 190536Z 34024G29KT M01/M02 A3003 RMK A01 T10111022  RH  092%=      5-min Rain = 0
KPA1 190537Z 34023KT M01/M02 A3003 RMK A01 T10111023  RH  092%=      5-min Rain = 0
KPA1 190538Z 34026G31KT M01/M02 A3003 RMK A01 T10111022  RH  092%=      5-min Rain = 0
KPA1 190539Z 34025KT M01/M02 A3003 RMK A01 T10111022  RH  092%=      5-min Rain = 0
KPA1 190540Z 34025KT M01/M02 A3003 RMK A01 T10111022  RH  092%=      5-min Rain = 0
KPA1 190541Z 34022G28KT M01/M02 A3003 RMK A01 T10111022  RH  092%=      5-min Rain = 0
KPA1 190542Z 34021KT M01/M02 A3003 RMK A01 T10111022  RH  092%=      5-min Rain = 0
KPA1 190543Z 35020KT M01/M02 A3003 RMK A01 T10111021  RH  093%=      5-min Rain = 0
KPA1 190544Z 34017KT M01/M02 A3003 RMK A01 T10111021  RH  093%=      5-min Rain = 0
KPA1 190545Z 34023KT M01/M02 A3003 RMK A01 T10111020  RH  093%=      5-min Rain = 0
KPA1 190546Z 34021KT M01/M02 A3003 RMK A01 T10111020  RH  094%=      5-min Rain = 0
KPA1 190547Z 34022KT M01/M02 A3003 RMK A01 T10111020  RH  094%=      5-min Rain = 0
KPA1 190548Z 34019G25KT M01/M02 A3003 RMK A01 T10111019  RH  094%=      5-min Rain = 0
KPA1 190549Z 34019G25KT M01/M02 A3003 RMK A01 T10111019  RH  094%=      5-min Rain = 0
KPA1 190550Z 34024KT M01/M02 A3003 RMK A01 T10111019  RH  095%=      5-min Rain = 0
KPA1 190551Z 34022G29KT M01/M02 A3003 RMK A01 T10111019  RH  095%=      5-min Rain = 0
KPA1 190552Z 34023G28KT M01/M02 A3003 RMK A01 T10111019  RH  094%=      5-min Rain = 0
KPA1 190553Z 34022G29KT M01/M02 A3003 RMK A01 T10111018  RH  095%=      5-min Rain = 0
KPA1 190554Z 34022G27KT M01/M02 A3003 RMK A01 T10111018  RH  095%=      5-min Rain = 0
KPA1 190555Z 34021KT M01/M02 A3003 RMK A01 T10111018  RH  095%=      5-min Rain = 0
KPA1 190556Z 34021G27KT M01/M02 A3003 RMK A01 T10111018  RH  095%=      5-min Rain = 0
KPA1 190557Z 34023KT M01/M02 A3003 RMK A01 T10111018  RH  095%=      5-min Rain = 0
KPA1 190558Z 34019KT M01/M02 A3003 RMK A01 T10111018  RH  095%=      5-min Rain = 0
KPA1 190559Z 33018KT M01/M02 A3003 RMK A01 T10111018  RH  095%=      5-min Rain = 0

Page generated in 0.1422 seconds.